EW0412 Weather Reports


Display with metric or nautical units.
time (UTC)temp
F
wind
direction
speed
MPH
gust
MPH
rain 1hr
in
rain 24hr
in
rain mn
in
humidity
%
barometer
mb
20200705224508 75 356 2.0 5.0 0.23 0.35 0.35 87 1012.8
20200705224403 75 355 2.0 5.0 0.23 0.35 0.35 87 1012.4
20200705224304 75 355 2.0 6.0 0.23 0.35 0.35 87 1012.7
20200705224204 75 355 2.0 6.0 0.23 0.35 0.35 87 1012.7
20200705224103 75 356 2.0 6.0 0.23 0.35 0.35 87 1012.9
20200705224005 75 357 2.0 6.0 0.22 0.35 0.35 87 1012.5
20200705223904 75 359 2.0 6.0 0.22 0.35 0.35 87 1012.7
20200705223810 75 2 2.0 6.0 0.22 0.35 0.35 87 1012.5
20200705223703 76 4 2.0 6.0 0.22 0.34 0.34 87 1012.7
20200705223606 76 7 2.0 6.0 0.22 0.34 0.34 87 1012.6
20200705223504 76 10 2.0 6.0 0.22 0.34 0.34 87 1012.8
20200705223403 76 18 2.0 6.0 0.22 0.34 0.34 87 1012.7
20200705223304 76 22 2.0 7.0 0.22 0.34 0.34 87 1012.9
20200705223204 76 19 2.0 7.0 0.22 0.34 0.34 87 1012.8
20200705223103 76 14 2.0 7.0 0.22 0.34 0.34 87 1012.9
20200705223006 76 11 2.0 7.0 0.22 0.34 0.34 87 1012.9
20200705222904 76 10 2.0 7.0 0.22 0.34 0.34 87 1013.0
20200705222805 76 7 2.0 7.0 0.22 0.34 0.34 87 1012.9
20200705222703 76 360 2.0 7.0 0.22 0.34 0.34 86 1013.0
20200705222604 76 346 2.0 7.0 0.22 0.34 0.34 86 1012.9
20200705222506 76 330 1.0 7.0 0.22 0.34 0.34 85 1013.0
20200705222404 76 311 1.0 7.0 0.22 0.34 0.34 88 1012.9
20200705222303 76 277 1.0 2.0 0.22 0.34 0.34 88 1012.9
20200705222203 76 275 1.0 2.0 0.22 0.34 0.34 88 1013.0
20200705222104 76 284 1.0 3.0 0.22 0.34 0.34 88 1013.2
20200705222006 76 289 1.0 3.0 0.22 0.34 0.34 88 1013.2
20200705221903 76 298 1.0 4.0 0.22 0.34 0.34 88 1013.2
20200705221807 76 310 2.0 4.0 0.22 0.34 0.34 87 1012.9
20200705221704 76 321 2.0 4.0 0.21 0.33 0.33 87 1013.2
20200705221603 76 333 2.0 4.0 0.21 0.33 0.33 87 1013.0
20200705221505 76 343 2.0 4.0 0.21 0.33 0.33 87 1012.9
20200705221404 76 350 2.0 4.0 0.21 0.33 0.33 87 1012.9
20200705221304 76 359 3.0 4.0 0.21 0.33 0.33 87 1013.1
20200705221203 76 11 3.0 5.0 0.21 0.33 0.33 86 1012.9
20200705221103 76 25 3.0 7.0 0.21 0.33 0.33 86 1013.1
20200705221006 76 32 3.0 7.0 0.21 0.33 0.33 87 1013.3
20200705220904 76 39 3.0 7.0 0.21 0.33 0.33 87 1013.2
20200705220803 76 46 3.0 7.0 0.21 0.33 0.33 87 1013.1
20200705220704 76 50 3.0 7.0 0.21 0.33 0.33 86 1013.3
20200705220604 76 56 2.0 7.0 0.20 0.33 0.33 87 1013.3
20200705220504 76 67 2.0 7.0 0.20 0.33 0.33 86 1013.2
20200705220404 76 82 2.0 7.0 0.19 0.31 0.31 85 1013.2
20200705220303 76 106 2.0 7.0 0.19 0.31 0.31 85 1013.2
20200705220204 76 149 2.0 7.0 0.19 0.31 0.31 85 1013.0
20200705220103 76 179 2.0 6.0 0.19 0.31 0.31 85 1013.0
20200705220005 76 178 2.0 8.0 0.18 0.30 0.30 83 1012.8
20200705215904 76 174 3.0 8.0 0.17 0.29 0.29 83 1012.9
20200705215804 76 171 3.0 8.0 0.16 0.28 0.28 84 1013.0
20200705215703 76 170 4.0 9.0 0.15 0.27 0.27 84 1012.9
20200705215604 76 168 4.0 9.0 0.15 0.27 0.27 84 1012.8
20200705215506 76 169 4.0 9.0 0.12 0.24 0.24 84 1012.8
20200705215403 76 169 5.0 9.0 0.12 0.24 0.24 82 1013.0
20200705215304 76 168 6.0 13.0 0.11 0.23 0.23 83 1012.8
20200705215204 77 166 6.0 13.0 0.09 0.21 0.21 83 1012.7
20200705215104 77 165 6.0 13.0 0.07 0.19 0.19 85 1012.8
20200705215004 77 163 6.0 13.0 0.03 0.15 0.15 85 1012.9
20200705214904 78 164 5.0 13.0 0.02 0.14 0.14 84 1013.1
20200705214804 79 165 5.0 13.0 0.00 0.13 0.13 86 1013.0
20200705214703 79 163 5.0 13.0 0.00 0.12 0.12 86 1013.0
20200705214604 79 163 5.0 13.0 0.00 0.12 0.12 86 1013.2
20200705214504 79 160 5.0 13.0 0.00 0.12 0.12 86 1013.3
20200705214404 79 159 5.0 13.0 0.00 0.12 0.12 86 1013.2
20200705214303 79 159 5.0 13.0 0.00 0.12 0.12 86 1013.0
20200705214207 79 159 5.0 13.0 0.00 0.12 0.12 86 1013.3
20200705214104 79 158 6.0 13.0 0.00 0.12 0.12 86 1013.0
20200705214004 79 158 5.0 13.0 0.00 0.12 0.12 86 1013.1
20200705213904 79 156 5.0 13.0 0.00 0.12 0.12 86 1013.2
20200705213804 79 153 5.0 13.0 0.00 0.12 0.12 86 1013.0
20200705213704 79 152 5.0 13.0 0.00 0.12 0.12 86 1013.3
20200705213603 79 149 4.0 13.0 0.00 0.12 0.12 86 1013.1
20200705213504 79 146 4.0 13.0 0.00 0.12 0.12 86 1013.1
20200705213404 79 138 4.0 13.0 0.00 0.12 0.12 86 1013.2
20200705213305 79 99 3.0 10.0 0.00 0.12 0.12 86 1013.1
20200705213204 79 42 2.0 10.0 0.00 0.12 0.12 86 1013.0
20200705213103 79 22 2.0 4.0 0.00 0.12 0.12 86 1012.4
20200705213005 79 22 2.0 4.0 0.00 0.12 0.12 86 1012.1
20200705212906 79 21 2.0 4.0 0.00 0.12 0.12 86 1012.5
20200705212803 79 19 2.0 4.0 0.00 0.12 0.12 86 1012.1
20200705212705 79 18 2.0 6.0 0.00 0.12 0.12 86 1011.9
20200705212604 79 17 2.0 6.0 0.00 0.12 0.12 86 1012.1
20200705212504 79 13 3.0 6.0 0.00 0.12 0.12 86 1012.1
20200705212403 79 15 3.0 6.0 0.00 0.12 0.12 86 1012.2
20200705212303 79 10 3.0 6.0 0.00 0.12 0.12 85 1011.9
20200705212206 79 9 3.0 6.0 0.00 0.12 0.12 86 1012.0
20200705212104 79 8 3.0 6.0 0.00 0.12 0.12 86 1012.1
20200705212006 79 6 3.0 6.0 0.00 0.12 0.12 86 1012.1
20200705211903 79 2 3.0 6.0 0.00 0.12 0.12 85 1011.7
20200705211804 79 1 3.0 6.0 0.00 0.12 0.12 85 1011.9
20200705211704 79 360 3.0 5.0 0.00 0.12 0.12 85 1011.7
20200705211603 79 3 3.0 8.0 0.00 0.12 0.12 85 1011.8
20200705211508 79 3 3.0 8.0 0.00 0.12 0.12 85 1011.6
20200705211404 79 2 3.0 8.0 0.00 0.12 0.12 85 1011.3
20200705211304 79 5 4.0 8.0 0.01 0.12 0.12 85 1011.5
20200705211203 79 5 4.0 8.0 0.01 0.12 0.12 85 1011.4
20200705211104 79 6 4.0 8.0 0.01 0.12 0.12 85 1011.5
20200705211004 79 7 4.0 8.0 0.01 0.12 0.12 85 1011.7
20200705210904 79 11 4.0 8.0 0.01 0.12 0.12 85 1011.5
20200705210805 79 12 4.0 8.0 0.01 0.12 0.12 85 1011.5
20200705210709 79 12 4.0 8.0 0.01 0.12 0.12 85 1011.5
20200705210603 79 8 4.0 7.0 0.01 0.12 0.12 85 1011.6
20200705210504 79 8 4.0 7.0 0.02 0.12 0.12 85 1011.6
20200705210403 79 5 4.0 9.0 0.02 0.12 0.12 85 1011.8
20200705210304 79 6 4.0 9.0 0.02 0.12 0.12 84 1011.7
20200705210204 79 5 4.0 9.0 0.03 0.12 0.12 85 1011.8
20200705210103 79 4 4.0 9.0 0.03 0.12 0.12 85 1011.9
20200705210003 79 5 4.0 9.0 0.03 0.12 0.12 84 1011.9
20200705205903 79 4 4.0 9.0 0.03 0.12 0.12 84 1012.0
20200705205804 79 4 5.0 9.0 0.03 0.12 0.12 84 1012.2
20200705205706 79 5 5.0 9.0 0.03 0.12 0.12 84 1012.2
20200705205603 79 7 5.0 9.0 0.03 0.12 0.12 84 1012.2
20200705205504 79 8 5.0 9.0 0.03 0.12 0.12 84 1012.3
20200705205404 79 9 5.0 7.0 0.04 0.12 0.12 84 1012.3
20200705205306 80 9 5.0 7.0 0.04 0.12 0.12 84 1012.4
20200705205203 80 8 5.0 10.0 0.04 0.12 0.12 84 1012.5
20200705205104 80 8 6.0 10.0 0.04 0.12 0.12 84 1012.3
20200705205004 80 7 6.0 10.0 0.04 0.12 0.12 84 1012.3
20200705204903 80 8 6.0 10.0 0.04 0.12 0.12 84 1012.5
20200705204803 80 7 6.0 10.0 0.04 0.12 0.12 84 1012.3
20200705204705 80 7 6.0 10.0 0.04 0.12 0.12 84 1012.4
20200705204603 80 7 6.0 10.0 0.04 0.12 0.12 84 1012.4
20200705204504 80 6 6.0 10.0 0.04 0.12 0.12 84 1012.4
20200705204403 80 6 6.0 10.0 0.04 0.12 0.12 83 1012.5
20200705204304 80 6 6.0 10.0 0.04 0.12 0.12 83 1012.4
20200705204203 80 7 6.0 11.0 0.04 0.12 0.12 83 1012.5
20200705204104 80 8 6.0 11.0 0.07 0.12 0.12 83 1012.4
20200705204006 80 7 6.0 11.0 0.07 0.12 0.12 83 1012.2
20200705203905 80 5 5.0 11.0 0.07 0.12 0.12 82 1012.2
20200705203803 80 5 5.0 11.0 0.07 0.12 0.12 82 1012.3
20200705203703 80 4 5.0 11.0 0.07 0.12 0.12 82 1012.0
20200705203604 80 3 4.0 11.0 0.07 0.12 0.12 82 1012.1
20200705203503 80 2 4.0 11.0 0.07 0.12 0.12 82 1012.2
20200705203403 81 359 3.0 11.0 0.07 0.12 0.12 82 1012.2
20200705203303 81 355 3.0 11.0 0.07 0.12 0.12 82 1012.2
20200705203204 81 345 2.0 8.0 0.07 0.12 0.12 83 1012.1
20200705203106 81 330 1.0 6.0 0.07 0.12 0.12 83 1012.0
20200705203004 81 319 1.0 2.0 0.07 0.12 0.12 84 1012.0
20200705202903 81 319 1.0 2.0 0.07 0.12 0.12 85 1012.4
20200705202807 81 319 1.0 2.0 0.07 0.12 0.12 85 1012.2
20200705202704 81 319 1.0 2.0 0.07 0.12 0.12 83 1012.3
20200705202603 81 319 1.0 2.0 0.07 0.12 0.12 85 1012.2
20200705202506 81 319 0.0 1.0 0.07 0.12 0.12 84 1012.3
20200705202404 81 319 0.0 1.0 0.07 0.12 0.12 84 1012.1
20200705202305 81 319 0.0 1.0 0.07 0.12 0.12 84 1012.3
20200705202203 81 319 0.0 1.0 0.07 0.12 0.12 83 1012.1
20200705202104 81 319 0.0 3.0 0.07 0.12 0.12 83 1012.0
20200705202004 81 319 1.0 3.0 0.07 0.12 0.12 81 1012.0
20200705201903 81 319 1.0 3.0 0.07 0.12 0.12 81 1012.0
20200705201803 81 319 1.0 4.0 0.07 0.12 0.12 82 1012.0
20200705201704 81 320 1.0 4.0 0.07 0.12 0.12 82 1011.8
20200705201603 81 320 2.0 4.0 0.07 0.12 0.12 81 1011.9
20200705201504 81 318 2.0 4.0 0.07 0.12 0.12 81 1012.0
20200705201403 81 318 2.0 4.0 0.07 0.12 0.12 80 1011.9
20200705201306 81 321 3.0 4.0 0.07 0.11 0.11 80 1011.9
20200705201204 80 321 3.0 4.0 0.07 0.11 0.11 82 1011.9
20200705201103 81 318 3.0 5.0 0.10 0.11 0.11 79 1011.9
20200705201004 81 314 3.0 8.0 0.11 0.11 0.11 79 1012.0
20200705200904 81 311 3.0 8.0 0.11 0.11 0.11 79 1012.0
20200705200803 81 306 3.0 8.0 0.11 0.11 0.11 78 1012.0
20200705200703 81 302 3.0 8.0 0.11 0.11 0.11 78 1012.1
20200705200604 81 295 3.0 8.0 0.11 0.11 0.11 78 1012.0
20200705200508 81 293 3.0 8.0 0.11 0.11 0.11 77 1012.1
20200705200410 81 289 3.0 8.0 0.10 0.10 0.10 77 1012.1
20200705200305 81 280 2.0 8.0 0.10 0.10 0.10 77 1012.1
20200705200204 83 273 2.0 8.0 0.09 0.09 0.09 77 1012.3
20200705200103 83 262 2.0 8.0 0.09 0.09 0.09 77 1012.2
20200705200003 83 249 2.0 6.0 0.09 0.09 0.09 77 1012.5
20200705195903 83 237 1.0 6.0 0.09 0.09 0.09 77 1012.3
20200705195804 83 234 1.0 6.0 0.09 0.09 0.09 77 1012.2
20200705195703 83 235 2.0 6.0 0.09 0.09 0.09 77 1012.4
20200705195603 83 237 2.0 6.0 0.09 0.09 0.09 75 1012.5
20200705195503 83 239 2.0 6.0 0.09 0.09 0.09 75 1012.7
20200705195404 83 240 2.0 6.0 0.09 0.09 0.09 76 1012.5
20200705195303 84 242 3.0 6.0 0.09 0.09 0.09 73 1012.5
20200705195203 84 242 3.0 6.0 0.09 0.09 0.09 73 1012.4
20200705195103 84 240 3.0 6.0 0.09 0.09 0.09 73 1012.4
20200705195004 84 239 3.0 6.0 0.09 0.09 0.09 73 1012.4
20200705194904 84 237 3.0 5.0 0.09 0.09 0.09 73 1012.5
20200705194803 84 230 3.0 5.0 0.09 0.09 0.09 73 1012.5
20200705194703 84 221 3.0 9.0 0.09 0.09 0.09 73 1012.4
20200705194605 84 218 4.0 10.0 0.09 0.09 0.09 73 1012.7
20200705194510 84 212 4.0 10.0 0.09 0.09 0.09 73 1012.7
20200705194403 84 206 3.0 10.0 0.08 0.08 0.08 73 1012.9
20200705194303 84 199 3.0 10.0 0.08 0.08 0.08 73 1012.5
20200705194203 84 194 3.0 10.0 0.06 0.06 0.08 73 1012.8
20200705194103 89 189 3.0 10.0 0.05 0.05 0.05 66 1012.8
20200705194005 89 183 3.0 10.0 0.05 0.05 0.05 66 1012.8
20200705193903 89 177 3.0 10.0 0.05 0.05 0.05 66 1012.7
20200705193804 89 169 3.0 10.0 0.05 0.05 0.05 66 1012.7
20200705193704 89 139 2.0 10.0 0.05 0.05 0.05 66 1012.5
20200705193603 89 104 2.0 6.0 0.05 0.05 0.05 66 1012.5
20200705193504 89 70 2.0 5.0 0.05 0.05 0.05 66 1012.6
20200705193403 89 55 3.0 7.0 0.05 0.05 0.05 66 1012.5
20200705193304 89 44 3.0 7.0 0.05 0.05 0.05 66 1012.4
20200705193203 89 31 4.0 8.0 0.05 0.05 0.05 66 1012.6
20200705193104 89 29 4.0 8.0 0.05 0.05 0.05 66 1012.5
20200705193010 89 25 5.0 18.0 0.05 0.05 0.05 66 1012.2
20200705192906 89 24 5.0 18.0 0.05 0.05 0.05 66 1012.2
20200705192805 89 21 5.0 18.0 0.05 0.05 0.05 66 1012.3
20200705192706 89 17 5.0 18.0 0.05 0.05 0.05 66 1012.3
20200705192606 89 13 5.0 18.0 0.05 0.05 0.05 66 1012.4
20200705192506 89 13 5.0 18.0 0.05 0.05 0.05 66 1012.3
20200705192405 89 12 5.0 18.0 0.05 0.05 0.05 66 1012.1
20200705192315 89 13 4.0 18.0 0.05 0.05 0.05 66 1012.4
20200705192207 89 18 4.0 18.0 0.05 0.05 0.05 66 1012.1
20200705192106 89 16 3.0 18.0 0.05 0.05 0.05 66 1012.1
20200705192005 89 21 2.0 7.0 0.05 0.05 0.05 66 1012.4
20200705191908 89 28 2.0 7.0 0.05 0.05 0.05 66 1012.4
20200705191806 89 42 2.0 7.0 0.05 0.05 0.05 66 1012.4
20200705191706 89 75 2.0 7.0 0.05 0.05 0.05 66 1012.4
20200705191605 89 104 2.0 7.0 0.05 0.05 0.05 66 1012.4
20200705191509 89 140 2.0 6.0 0.05 0.05 0.05 66 1012.5
20200705191408 89 152 1.0 3.0 0.04 0.04 0.04 66 1012.3
20200705191306 89 151 2.0 6.0 0.04 0.04 0.04 66 1012.5
20200705191205 89 148 2.0 6.0 0.03 0.03 0.03 66 1012.5
20200705191106 89 145 2.0 6.0 0.01 0.01 0.01 66 1012.3
20200705191008 89 142 2.0 6.0 0.01 0.01 0.01 66 1012.2
20200705190905 89 139 2.0 6.0 0.00 0.00 0.00 66 1012.4
20200705190812 89 141 2.0 6.0 0.00 0.00 0.00 66 1012.4
20200705190707 89 140 1.0 6.0 0.00 0.00 0.00 66 1012.4
20200705190605 89 136 2.0 6.0 0.00 0.00 0.00 66 1012.3
20200705190507 89 128 1.0 6.0 0.00 0.00 0.00 66 1012.4
20200705190406 89 125 1.0 6.0 0.00 0.00 0.00 66 1012.4
20200705190306 89 120 1.0 3.0 0.00 0.00 0.00 66 1012.2
20200705190206 89 117 1.0 4.0 0.00 0.00 0.00 66 1012.3
20200705190105 89 114 1.0 4.0 0.00 0.00 0.00 66 1012.6
20200705190011 89 112 1.0 4.0 0.00 0.00 0.00 66 1012.4
20200705185906 89 111 1.0 4.0 0.00 0.00 0.00 66 1012.5
20200705185805 89 116 2.0 4.0 0.00 0.00 0.00 66 1012.5
20200705185706 89 116 2.0 4.0 0.00 0.00 0.00 66 1012.4
20200705185606 89 118 2.0 4.0 0.00 0.00 0.00 66 1012.4
20200705185506 89 119 2.0 4.0 0.00 0.00 0.00 66 1012.4
20200705185406 89 119 2.0 4.0 0.00 0.00 0.00 66 1012.7
20200705185306 89 117 2.0 4.0 0.00 0.00 0.00 66 1012.6
20200705185206 89 120 2.0 4.0 0.00 0.00 0.00 66 1012.5
20200705185106 89 122 2.0 4.0 0.00 0.00 0.00 66 1012.6
20200705185011 89 123 2.0 4.0 0.00 0.00 0.00 66 1012.6
20200705184905 89 123 2.0 4.0 0.00 0.00 0.00 66 1012.6
20200705184806 89 118 1.0 4.0 0.00 0.00 0.00 66 1012.6
20200705184706 89 116 1.0 4.0 0.00 0.00 0.00 66 1012.7
20200705184605 89 111 1.0 4.0 0.00 0.00 0.00 66 1012.8
20200705184510 89 105 1.0 2.0 0.00 0.00 0.00 66 1012.9
20200705184406 89 114 1.0 4.0 0.00 0.00 0.00 66 1012.7
20200705184306 89 111 1.0 4.0 0.00 0.00 0.00 66 1012.8
20200705184206 89 103 1.0 4.0 0.00 0.00 0.00 66 1012.9
20200705184106 89 93 1.0 4.0 0.00 0.00 0.00 66 1012.9
20200705184006 89 86 1.0 4.0 0.00 0.00 0.00 66 1012.9
20200705183905 89 84 2.0 4.0 0.00 0.00 0.00 66 1012.8
20200705183805 89 78 2.0 4.0 0.00 0.00 0.00 66 1012.8
20200705183707 89 67 2.0 4.0 0.00 0.00 0.00 66 1012.9
20200705183606 89 64 2.0 4.0 0.00 0.00 0.00 66 1012.8
20200705183507 89 63 2.0 4.0 0.00 0.00 0.00 66 1012.7
20200705183405 89 53 2.0 4.0 0.00 0.00 0.00 66 1012.8
20200705183305 89 54 2.0 4.0 0.00 0.00 0.00 66 1012.7
20200705183206 89 56 2.0 4.0 0.00 0.00 0.00 66 1012.9
20200705183106 89 60 2.0 4.0 0.00 0.00 0.00 66 1012.8
20200705183007 89 65 2.0 4.0 0.00 0.00 0.00 66 1012.7
20200705182905 89 70 2.0 4.0 0.00 0.00 0.00 66 1012.9
20200705182806 89 80 2.0 4.0 0.00 0.00 0.00 66 1012.9
20200705182706 89 95 2.0 4.0 0.00 0.00 0.00 66 1013.1
20200705182606 89 113 2.0 4.0 0.00 0.00 0.00 66 1013.0
20200705182505 89 130 2.0 4.0 0.00 0.00 0.00 66 1012.8
20200705182406 89 147 1.0 3.0 0.00 0.00 0.00 66 1012.9
20200705182306 89 165 1.0 3.0 0.00 0.00 0.00 66 1013.0
20200705182206 89 172 1.0 3.0 0.00 0.00 0.00 66 1013.0
20200705182105 89 181 1.0 3.0 0.00 0.00 0.00 66 1013.0
20200705182007 89 171 2.0 3.0 0.00 0.00 0.00 66 1013.0
20200705181906 89 174 1.0 3.0 0.00 0.00 0.00 66 1013.1
20200705181805 89 175 1.0 3.0 0.00 0.00 0.00 66 1013.1
20200705181705 89 175 1.0 3.0 0.00 0.00 0.00 66 1013.3
20200705181606 89 167 2.0 4.0 0.00 0.00 0.00 66 1013.2
20200705181509 89 163 2.0 4.0 0.00 0.00 0.00 66 1013.0
20200705181405 89 151 2.0 6.0 0.00 0.00 0.00 66 1013.1
20200705181308 89 140 2.0 6.0 0.00 0.00 0.00 66 1013.0
20200705181206 89 138 2.0 6.0 0.00 0.00 0.00 66 1013.2
20200705181106 89 135 2.0 6.0 0.00 0.00 0.00 66 1013.0
20200705181006 89 138 2.0 6.0 0.00 0.00 0.00 66 1013.2
20200705180905 89 137 2.0 6.0 0.00 0.00 0.00 66 1013.4
20200705180806 89 136 2.0 6.0 0.00 0.00 0.00 66 1013.4
20200705180707 89 135 2.0 6.0 0.00 0.00 0.00 66 1013.5
20200705180606 89 131 2.0 6.0 0.00 0.00 0.00 66 1013.4
20200705180506 89 122 2.0 6.0 0.00 0.00 0.00 66 1013.4
20200705180406 89 123 2.0 4.0 0.00 0.00 0.00 66 1013.2
20200705180307 89 124 2.0 4.0 0.00 0.00 0.00 66 1013.6
20200705180206 89 124 2.0 4.0 0.00 0.00 0.00 66 1013.5
20200705180106 89 124 2.0 4.0 0.00 0.00 0.00 66 1013.5
20200705180007 89 126 2.0 4.0 0.00 0.00 0.00 66 1013.5
20200705175906 89 128 2.0 4.0 0.00 0.00 0.00 66 1013.4
20200705175806 89 128 2.0 4.0 0.00 0.00 0.00 66 1013.5
20200705175705 89 128 2.0 4.0 0.00 0.00 0.00 66 1013.5
20200705175605 89 128 1.0 4.0 0.00 0.00 0.00 66 1013.7
20200705175506 89 129 1.0 3.0 0.00 0.00 0.00 66 1013.8
20200705175406 89 131 1.0 3.0 0.00 0.00 0.00 66 1013.6
20200705175310 89 131 1.0 3.0 0.00 0.00 0.00 66 1013.5
20200705175206 89 131 1.0 3.0 0.00 0.00 0.00 66 1013.6
20200705175106 89 132 1.0 3.0 0.00 0.00 0.00 66 1013.7
20200705175006 89 133 1.0 3.0 0.00 0.00 0.00 66 1013.6
20200705174906 89 136 1.0 3.0 0.00 0.00 0.00 66 1013.7
20200705174805 89 138 1.0 3.0 0.00 0.00 0.00 66 1013.7
20200705174705 89 141 1.0 3.0 0.00 0.00 0.00 66 1013.6
20200705174606 89 143 1.0 3.0 0.00 0.00 0.00 66 1014.0
20200705174506 89 149 1.0 3.0 0.00 0.00 0.00 66 1013.9
20200705174405 89 150 1.0 3.0 0.00 0.00 0.00 66 1013.8
20200705174305 89 153 1.0 3.0 0.00 0.00 0.00 66 1013.9
20200705174206 89 154 1.0 3.0 0.00 0.00 0.00 66 1013.9
20200705174106 89 154 2.0 4.0 0.00 0.00 0.00 66 1013.7
20200705174006 89 151 2.0 4.0 0.00 0.00 0.00 66 1013.7
20200705173905 89 149 2.0 4.0 0.00 0.00 0.00 66 1013.9
20200705173805 89 147 2.0 4.0 0.00 0.00 0.00 66 1013.8
20200705173706 89 145 2.0 4.0 0.00 0.00 0.00 66 1013.9
20200705173606 89 139 2.0 4.0 0.00 0.00 0.00 66 1013.7
20200705173505 89 133 2.0 4.0 0.00 0.00 0.00 66 1013.8
20200705173406 89 130 1.0 4.0 0.00 0.00 0.00 66 1014.0
20200705173306 89 121 1.0 4.0 0.00 0.00 0.00 66 1013.9
20200705173205 89 108 1.0 4.0 0.00 0.00 0.00 66 1013.7
20200705173106 89 93 1.0 3.0 0.00 0.00 0.00 66 1013.9
20200705173005 89 83 1.0 2.0 0.00 0.00 0.00 66 1013.7
20200705172907 89 82 1.0 3.0 0.00 0.00 0.00 66 1014.0
20200705172806 89 80 1.0 3.0 0.00 0.00 0.00 66 1013.8
20200705172706 89 77 1.0 3.0 0.00 0.00 0.00 66 1014.0
20200705172605 89 74 2.0 6.0 0.00 0.00 0.00 66 1014.0
20200705172507 89 73 2.0 6.0 0.00 0.00 0.00 66 1013.8
20200705172405 89 77 2.0 6.0 0.00 0.00 0.00 66 1013.8
20200705172305 89 73 2.0 6.0 0.00 0.00 0.00 66 1013.9
20200705172205 89 66 2.0 6.0 0.00 0.00 0.00 66 1014.0
20200705172106 89 66 2.0 6.0 0.00 0.00 0.00 66 1013.9
20200705172006 89 67 2.0 6.0 0.00 0.00 0.00 66 1013.7
20200705171905 89 77 2.0 6.0 0.00 0.00 0.00 66 1013.9
20200705171805 89 83 2.0 6.0 0.00 0.00 0.00 66 1013.8
20200705171706 89 90 2.0 6.0 0.00 0.00 0.00 66 1014.0
20200705171609 89 125 2.0 4.0 0.00 0.00 0.00 66 1014.2
20200705171507 89 146 2.0 4.0 0.00 0.00 0.00 66 1014.0
20200705171405 89 178 1.0 4.0 0.00 0.00 0.00 66 1014.0
20200705171306 89 166 1.0 4.0 0.00 0.00 0.00 66 1013.9
20200705171206 89 159 2.0 4.0 0.00 0.00 0.00 66 1014.1
20200705171105 89 161 2.0 4.0 0.00 0.00 0.00 66 1014.1
20200705171011 89 154 2.0 4.0 0.00 0.00 0.00 66 1014.1
20200705170906 89 148 1.0 3.0 0.00 0.00 0.00 67 1013.9
20200705170806 89 141 2.0 3.0 0.00 0.00 0.00 69 1014.0
20200705170706 89 136 2.0 3.0 0.00 0.00 0.00 70 1014.3
20200705170605 89 130 2.0 3.0 0.00 0.00 0.00 68 1013.9
20200705170505 89 132 2.0 4.0 0.00 0.00 0.00 67 1014.1
20200705170406 89 131 2.0 5.0 0.00 0.00 0.00 64 1014.2
20200705170306 89 132 3.0 5.0 0.00 0.00 0.00 66 1014.3
20200705170205 89 137 3.0 5.0 0.00 0.00 0.00 64 1014.1
20200705170106 89 138 3.0 5.0 0.00 0.00 0.00 64 1014.1
20200705170013 89 145 3.0 5.0 0.00 0.00 0.00 65 1014.3
20200705165905 89 151 3.0 5.0 0.00 0.00 0.00 67 1014.1
20200705165805 89 160 3.0 6.0 0.00 0.00 0.00 67 1014.2
20200705165706 89 163 3.0 6.0 0.00 0.00 0.00 66 1014.3
20200705165606 89 164 3.0 7.0 0.00 0.00 0.00 65 1014.2
20200705165505 89 168 3.0 7.0 0.00 0.00 0.00 66 1014.1
20200705165405 89 169 3.0 7.0 0.00 0.00 0.00 66 1014.1
20200705165307 89 172 3.0 7.0 0.00 0.00 0.00 66 1014.4
20200705165207 89 172 3.0 7.0 0.00 0.00 0.00 70 1014.1
20200705165105 89 172 3.0 7.0 0.00 0.00 0.00 70 1014.2
20200705165006 89 166 3.0 7.0 0.00 0.00 0.00 68 1014.2
20200705164907 89 162 3.0 7.0 0.00 0.00 0.00 66 1014.3
20200705164805 89 154 3.0 7.0 0.00 0.00 0.00 66 1014.3
20200705164705 89 151 2.0 7.0 0.00 0.00 0.00 66 1014.3
20200705164606 88 149 2.0 6.0 0.00 0.00 0.00 65 1014.2
20200705164506 88 143 2.0 6.0 0.00 0.00 0.00 65 1014.2
20200705164405 88 140 2.0 6.0 0.00 0.00 0.00 65 1014.2
20200705164309 89 137 2.0 6.0 0.00 0.00 0.00 66 1014.3
20200705164219 89 135 2.0 6.0 0.00 0.00 0.00 68 1014.3
20200705164132 89 133 1.0 3.0 0.00 0.00 0.00 68 1014.1
20200705164010 89 136 2.0 4.0 0.00 0.00 0.00 68 1014.4
20200705163906 88 142 2.0 4.0 0.00 0.00 0.00 67 1014.3
20200705163806 88 151 2.0 5.0 0.00 0.00 0.00 67 1014.1
20200705163706 88 159 3.0 9.0 0.00 0.00 0.00 67 1014.2
20200705163606 88 159 3.0 9.0 0.00 0.00 0.00 69 1014.0
20200705163506 88 158 3.0 9.0 0.00 0.00 0.00 69 1014.2
20200705163412 88 157 3.0 9.0 0.00 0.00 0.00 67 1014.2
20200705163306 88 159 3.0 9.0 0.00 0.00 0.00 65 1014.1
20200705163206 88 157 3.0 9.0 0.00 0.00 0.00 65 1014.0
20200705163108 88 156 3.0 9.0 0.00 0.00 0.00 66 1014.0
20200705163008 88 156 3.0 9.0 0.00 0.00 0.00 66 1014.1
20200705162906 88 156 3.0 9.0 0.00 0.00 0.00 63 1014.1
20200705162806 89 151 3.0 9.0 0.00 0.00 0.00 65 1014.0
20200705162705 89 144 2.0 4.0 0.00 0.00 0.00 65 1014.2
20200705162606 89 142 2.0 4.0 0.00 0.00 0.00 64 1014.0
20200705162507 89 139 3.0 8.0 0.00 0.00 0.00 64 1014.0
20200705162405 89 137 2.0 8.0 0.00 0.00 0.00 64 1014.2
20200705162305 89 135 2.0 8.0 0.00 0.00 0.00 65 1014.1
20200705162208 89 124 2.0 8.0 0.00 0.00 0.00 68 1014.2
20200705162105 89 116 2.0 8.0 0.00 0.00 0.00 68 1014.2
20200705162005 89 102 2.0 8.0 0.00 0.00 0.00 67 1014.2
20200705161906 89 97 2.0 8.0 0.00 0.00 0.00 67 1014.2
20200705161806 89 96 2.0 8.0 0.00 0.00 0.00 69 1014.1
20200705161706 89 96 2.0 8.0 0.00 0.00 0.00 66 1014.2
20200705161605 89 92 2.0 8.0 0.00 0.00 0.00 70 1014.1
20200705161508 89 85 2.0 5.0 0.00 0.00 0.00 69 1014.2
20200705161410 89 89 3.0 8.0 0.00 0.00 0.00 68 1014.2
20200705161305 89 86 3.0 8.0 0.00 0.00 0.00 70 1014.2
20200705161214 89 91 2.0 8.0 0.00 0.00 0.00 69 1014.3
20200705161106 89 91 2.0 8.0 0.00 0.00 0.00 69 1014.3
20200705161006 89 100 2.0 8.0 0.00 0.00 0.00 69 1014.3
20200705160906 89 101 2.0 8.0 0.00 0.00 0.00 69 1014.3
20200705160805 89 105 2.0 8.0 0.00 0.00 0.00 69 1014.5
20200705160705 88 105 2.0 8.0 0.00 0.00 0.00 68 1014.2
20200705160606 88 107 2.0 8.0 0.00 0.00 0.00 68 1014.1
20200705160505 88 112 2.0 8.0 0.00 0.00 0.00 68 1014.5
20200705160405 88 110 2.0 7.0 0.00 0.00 0.00 76 1014.3
20200705160305 88 117 2.0 7.0 0.00 0.00 0.00 72 1014.2
20200705160206 88 121 2.0 7.0 0.00 0.00 0.00 72 1014.4
20200705160109 88 121 2.0 7.0 0.00 0.00 0.00 70 1014.3
20200705160006 88 124 2.0 7.0 0.00 0.00 0.00 67 1014.2
20200705155905 88 126 2.0 7.0 0.00 0.00 0.00 67 1014.4
20200705155806 88 126 2.0 7.0 0.00 0.00 0.00 70 1014.6
20200705155705 87 129 1.0 4.0 0.00 0.00 0.00 73 1014.3
20200705155605 87 139 1.0 3.0 0.00 0.00 0.00 71 1014.5
20200705155507 87 145 2.0 8.0 0.00 0.00 0.00 68 1014.2
20200705155407 87 152 2.0 8.0 0.00 0.00 0.00 68 1014.4
20200705155307 87 158 2.0 8.0 0.00 0.00 0.00 70 1014.3
20200705155205 87 166 2.0 8.0 0.00 0.00 0.00 70 1014.4
20200705155107 87 172 2.0 8.0 0.00 0.00 0.00 72 1014.5
20200705155006 87 175 2.0 8.0 0.00 0.00 0.00 72 1014.4
20200705154906 87 177 2.0 8.0 0.00 0.00 0.00 72 1014.5
20200705154805 87 179 2.0 8.0 0.00 0.00 0.00 69 1014.4
20200705154706 87 179 2.0 8.0 0.00 0.00 0.00 68 1014.4
20200705154606 87 179 2.0 8.0 0.00 0.00 0.00 68 1014.3
20200705154506 87 183 2.0 6.0 0.00 0.00 0.00 71 1014.4
20200705154405 87 182 2.0 6.0 0.00 0.00 0.00 73 1014.4
20200705154306 87 178 2.0 6.0 0.00 0.00 0.00 75 1014.3
20200705154205 87 172 2.0 6.0 0.00 0.00 0.00 72 1014.3
20200705154105 87 170 2.0 6.0 0.00 0.00 0.00 72 1014.5
20200705154006 87 167 2.0 6.0 0.00 0.00 0.00 70 1014.3
20200705153906 87 162 2.0 6.0 0.00 0.00 0.00 70 1014.5
20200705153805 87 156 2.0 6.0 0.00 0.00 0.00 69 1014.4
20200705153705 87 146 1.0 6.0 0.00 0.00 0.00 74 1014.6
20200705153605 87 125 1.0 4.0 0.00 0.00 0.00 74 1014.5
20200705153506 86 89 1.0 3.0 0.00 0.00 0.00 73 1014.5
20200705153405 86 64 1.0 3.0 0.00 0.00 0.00 73 1014.3
20200705153305 86 45 1.0 4.0 0.00 0.00 0.00 73 1014.3
20200705153205 86 34 2.0 6.0 0.00 0.00 0.00 73 1014.6
20200705153109 86 29 2.0 6.0 0.00 0.00 0.00 70 1014.5
20200705153010 86 31 2.0 6.0 0.00 0.00 0.00 75 1014.4
20200705152905 86 34 2.0 6.0 0.00 0.00 0.00 72 1014.5
20200705152805 86 40 2.0 6.0 0.00 0.00 0.00 74 1014.4
20200705152706 86 50 2.0 6.0 0.00 0.00 0.00 75 1014.4
20200705152606 86 55 2.0 6.0 0.00 0.00 0.00 75 1014.4
20200705152505 86 56 2.0 6.0 0.00 0.00 0.00 73 1014.3
20200705152406 85 63 2.0 6.0 0.00 0.00 0.00 75 1014.3
20200705152306 85 78 2.0 6.0 0.00 0.00 0.00 75 1014.2
20200705152206 85 99 2.0 4.0 0.00 0.00 0.00 75 1014.2
20200705152105 85 107 2.0 4.0 0.00 0.00 0.00 77 1014.5
20200705152008 85 108 1.0 4.0 0.00 0.00 0.00 75 1014.6
20200705151907 85 108 1.0 4.0 0.00 0.00 0.00 75 1014.1
20200705151807 85 108 1.0 4.0 0.00 0.00 0.00 74 1014.4
20200705151707 85 103 1.0 4.0 0.00 0.00 0.00 74 1014.4
20200705151607 85 99 1.0 3.0 0.00 0.00 0.00 77 1014.5
20200705151516 85 106 1.0 3.0 0.00 0.00 0.00 76 1014.4
20200705151406 85 99 1.0 3.0 0.00 0.00 0.00 76 1014.5
20200705151306 85 70 1.0 3.0 0.00 0.00 0.00 75 1014.1
20200705151205 85 42 1.0 4.0 0.00 0.00 0.00 76 1014.3
20200705151105 85 36 1.0 4.0 0.00 0.00 0.00 75 1014.3
20200705151007 85 38 1.0 4.0 0.00 0.00 0.00 74 1014.1
20200705150908 85 31 1.0 4.0 0.00 0.00 0.00 74 1014.3
20200705150806 84 21 1.0 4.0 0.00 0.00 0.00 79 1014.5
20200705150706 84 8 1.0 4.0 0.00 0.00 0.00 79 1014.2
20200705150605 84 350 1.0 4.0 0.00 0.00 0.00 79 1014.2
20200705150505 84 309 1.0 4.0 0.00 0.00 0.00 80 1014.4
20200705150406 84 246 1.0 4.0 0.00 0.00 0.00 79 1014.2
20200705150305 84 212 1.0 4.0 0.00 0.00 0.00 79 1014.2
20200705150205 84 194 1.0 2.0 0.00 0.00 0.00 78 1014.4
20200705150117 84 188 1.0 2.0 0.00 0.00 0.00 77 1014.3
20200705150035 84 181 1.0 2.0 0.00 0.00 0.00 77 1014.1
20200705145918 83 156 1.0 3.0 0.00 0.00 0.00 79 1014.2
20200705145806 83 129 1.0 3.0 0.00 0.00 0.00 79 1014.2
20200705145705 83 114 1.0 3.0 0.00 0.00 0.00 78 1014.4
20200705145605 83 105 1.0 4.0 0.00 0.00 0.00 79 1014.2
20200705145505 83 103 1.0 4.0 0.00 0.00 0.00 77 1014.1
20200705145406 83 101 1.0 4.0 0.00 0.00 0.00 77 1014.3
20200705145305 83 99 1.0 4.0 0.00 0.00 0.00 77 1014.3
20200705145205 83 101 1.0 4.0 0.00 0.00 0.00 77 1014.4
20200705145105 83 100 1.0 4.0 0.00 0.00 0.00 79 1014.3
20200705145006 83 90 1.0 4.0 0.00 0.00 0.00 82 1014.2
20200705144905 83 90 1.0 4.0 0.00 0.00 0.00 79 1014.3
20200705144805 83 82 2.0 4.0 0.00 0.00 0.00 79 1014.3
20200705144705 83 76 2.0 4.0 0.00 0.00 0.00 79 1014.3
20200705144607 83 74 1.0 4.0 0.00 0.00 0.00 79 1014.3
20200705144507 83 74 1.0 4.0 0.00 0.00 0.00 80 1014.3
20200705144405 83 68 1.0 4.0 0.00 0.00 0.00 78 1014.5
20200705144307 83 65 2.0 4.0 0.00 0.00 0.00 79 1014.2
20200705144205 83 58 2.0 4.0 0.00 0.00 0.00 79 1014.3
20200705144106 82 54 2.0 4.0 0.00 0.00 0.00 81 1014.4
20200705144005 82 57 2.0 7.0 0.00 0.00 0.00 81 1014.4
20200705143905 82 53 2.0 7.0 0.00 0.00 0.00 83 1014.4
20200705143805 82 47 2.0 7.0 0.00 0.00 0.00 83 1014.7
20200705143706 82 45 2.0 7.0 0.00 0.00 0.00 82 1014.5
20200705143607 82 43 3.0 7.0 0.00 0.00 0.00 81 1014.4
20200705143505 82 42 3.0 7.0 0.00 0.00 0.00 82 1014.5
20200705143405 82 38 3.0 7.0 0.00 0.00 0.00 83 1014.5
20200705143306 82 34 3.0 7.0 0.00 0.00 0.00 82 1014.5
20200705143206 82 31 3.0 7.0 0.00 0.00 0.00 82 1014.4
20200705143107 82 31 3.0 7.0 0.00 0.00 0.00 82 1014.3
20200705143005 82 29 3.0 6.0 0.00 0.00 0.00 82 1014.5
20200705142906 82 29 2.0 6.0 0.00 0.00 0.00 83 1014.3
20200705142805 82 37 2.0 4.0 0.00 0.00 0.00 84 1014.2
20200705142705 81 40 2.0 4.0 0.00 0.00 0.00 84 1014.3
20200705142605 81 45 2.0 4.0 0.00 0.00 0.00 85 1014.3
20200705142506 81 48 2.0 4.0 0.00 0.00 0.00 85 1014.4
20200705142405 81 54 2.0 4.0 0.00 0.00 0.00 84 1014.3
20200705142307 81 59 2.0 4.0 0.00 0.00 0.00 84 1014.2
20200705142205 81 64 2.0 4.0 0.00 0.00 0.00 82 1014.4
20200705142105 81 73 1.0 4.0 0.00 0.00 0.00 82 1014.5
20200705142005 81 73 2.0 4.0 0.00 0.00 0.00 82 1014.1
20200705141905 81 72 2.0 4.0 0.00 0.00 0.00 84 1014.3
20200705141805 81 66 2.0 4.0 0.00 0.00 0.00 84 1014.4
20200705141706 81 68 2.0 4.0 0.00 0.00 0.00 83 1014.3
20200705141605 80 68 2.0 4.0 0.00 0.00 0.00 84 1014.4
20200705141511 80 68 2.0 4.0 0.00 0.00 0.00 84 1014.4
20200705141405 80 70 2.0 4.0 0.00 0.00 0.00 84 1014.4
20200705141305 80 71 2.0 4.0 0.00 0.00 0.00 84 1014.1
20200705141206 80 73 2.0 4.0 0.00 0.00 0.00 84 1014.1
20200705141105 80 68 2.0 4.0 0.00 0.00 0.00 87 1014.4
20200705141005 80 63 2.0 3.0 0.00 0.00 0.00 87 1014.3
20200705140905 80 56 2.0 4.0 0.00 0.00 0.00 87 1014.5
20200705140810 80 51 2.0 4.0 0.00 0.00 0.00 87 1014.2
20200705140708 80 47 3.0 7.0 0.00 0.00 0.00 87 1014.4
20200705140605 80 46 3.0 7.0 0.00 0.00 0.00 87 1014.3
20200705140506 80 44 3.0 7.0 0.00 0.00 0.00 87 1014.3
20200705140405 80 44 3.0 7.0 0.00 0.00 0.00 87 1014.4
20200705140305 80 41 2.0 7.0 0.00 0.00 0.00 87 1014.3
20200705140205 79 38 2.0 7.0 0.00 0.00 0.00 88 1014.4
20200705140105 79 37 2.0 7.0 0.00 0.00 0.00 88 1014.4
20200705140008 79 35 2.0 7.0 0.00 0.00 0.00 88 1014.2
20200705135905 79 38 2.0 7.0 0.00 0.00 0.00 88 1014.5
20200705135809 79 42 2.0 7.0 0.00 0.00 0.00 88 1014.3
20200705135705 79 44 1.0 3.0 0.00 0.00 0.00 89 1014.3
20200705135605 79 42 1.0 3.0 0.00 0.00 0.00 89 1014.3
20200705135506 79 40 1.0 3.0 0.00 0.00 0.00 89 1014.3
20200705135405 79 36 1.0 3.0 0.00 0.00 0.00 90 1014.3
20200705135305 79 33 1.0 2.0 0.00 0.00 0.00 90 1014.3
20200705135205 79 32 1.0 3.0 0.00 0.00 0.00 89 1014.3
20200705135106 79 31 2.0 4.0 0.00 0.00 0.00 89 1014.3
20200705135005 78 32 2.0 4.0 0.00 0.00 0.00 90 1014.4
20200705134908 78 34 2.0 4.0 0.00 0.00 0.00 90 1014.5
20200705134805 78 35 2.0 4.0 0.00 0.00 0.00 89 1014.2
20200705134705 78 37 2.0 4.0 0.00 0.00 0.00 89 1014.2
20200705134605 78 38 2.0 4.0 0.00 0.00 0.00 89 1014.6
20200705134508 77 39 2.0 4.0 0.00 0.00 0.00 90 1014.2
20200705134405 77 40 1.0 4.0 0.00 0.00 0.00 90 1014.2
20200705134306 77 44 1.0 4.0 0.00 0.00 0.00 90 1014.5
20200705134205 77 48 1.0 4.0 0.00 0.00 0.00 90 1014.3
20200705134105 77 54 1.0 3.0 0.00 0.00 0.00 90 1014.3
20200705134005 77 57 1.0 3.0 0.00 0.00 0.00 90 1014.3
20200705133905 77 57 1.0 3.0 0.00 0.00 0.00 90 1014.4
20200705133805 77 57 1.0 2.0 0.00 0.00 0.00 90 1014.3
20200705133706 77 57 1.0 2.0 0.00 0.00 0.00 90 1014.4
20200705133605 77 57 1.0 2.0 0.00 0.00 0.00 90 1014.4
20200705133506 77 57 1.0 2.0 0.00 0.00 0.00 90 1014.5
20200705133405 77 57 1.0 2.0 0.00 0.00 0.00 90 1014.3
20200705133305 77 57 1.0 2.0 0.00 0.00 0.00 92 1014.6
20200705133205 77 57 1.0 2.0 0.00 0.00 0.00 92 1014.4
20200705133105 77 57 1.0 2.0 0.00 0.00 0.00 92 1014.2
20200705133007 77 57 1.0 2.0 0.00 0.00 0.00 92 1014.1
20200705132906 77 57 1.0 2.0 0.00 0.00 0.00 92 1014.4
20200705132805 77 57 1.0 4.0 0.00 0.00 0.00 92 1014.2
20200705132705 76 57 1.0 4.0 0.00 0.00 0.00 92 1014.4
20200705132606 76 57 1.0 4.0 0.00 0.00 0.00 92 1014.4
20200705132507 76 57 1.0 4.0 0.00 0.00 0.00 92 1014.3
20200705132405 76 57 1.0 4.0 0.00 0.00 0.00 94 1014.5
20200705132305 76 57 1.0 4.0 0.00 0.00 0.00 93 1014.5
20200705132205 76 57 1.0 4.0 0.00 0.00 0.00 93 1014.4
20200705132106 76 57 1.0 4.0 0.00 0.00 0.00 93 1014.5
20200705132005 76 57 1.0 4.0 0.00 0.00 0.00 93 1014.5
20200705131907 76 57 2.0 4.0 0.00 0.00 0.00 94 1014.6
20200705131805 76 57 1.0 3.0 0.00 0.00 0.00 93 1014.5
20200705131705 76 57 1.0 3.0 0.00 0.00 0.00 93 1014.4
20200705131605 76 57 1.0 3.0 0.00 0.00 0.00 93 1014.6
20200705131506 75 57 1.0 3.0 0.00 0.00 0.00 95 1014.5
20200705131405 75 57 1.0 3.0 0.00 0.00 0.00 95 1014.6
20200705131305 75 57 1.0 3.0 0.00 0.00 0.00 95 1014.7
20200705131205 75 57 1.0 3.0 0.00 0.00 0.00 95 1014.5
20200705131106 75 57 1.0 3.0 0.00 0.00 0.00 95 1014.6
20200705131005 75 57 1.0 3.0 0.00 0.00 0.00 94 1014.5
20200705130905 75 57 1.0 3.0 0.00 0.00 0.00 94 1014.6
20200705130805 75 57 1.0 2.0 0.00 0.00 0.00 94 1014.4
20200705130705 75 57 1.0 3.0 0.00 0.00 0.00 95 1014.4
20200705130605 75 57 1.0 3.0 0.00 0.00 0.00 95 1014.5
20200705130505 75 57 2.0 3.0 0.00 0.00 0.00 95 1014.4
20200705130405 75 57 1.0 3.0 0.00 0.00 0.00 95 1014.4
20200705130306 75 57 1.0 3.0 0.00 0.00 0.00 95 1014.7
20200705130205 75 57 1.0 3.0 0.00 0.00 0.00 95 1014.4
20200705130105 75 57 1.0 3.0 0.00 0.00 0.00 95 1014.3
20200705130008 75 57 1.0 3.0 0.00 0.00 0.00 96 1014.4
20200705125905 75 57 1.0 3.0 0.00 0.00 0.00 95 1014.1
20200705125806 74 57 1.0 3.0 0.00 0.00 0.00 95 1014.6
20200705125705 74 57 1.0 2.0 0.00 0.00 0.00 95 1014.1
20200705125605 74 57 1.0 2.0 0.00 0.00 0.00 95 1014.5
20200705125507 74 57 1.0 2.0 0.00 0.00 0.00 96 1014.2
20200705125406 74 57 1.0 2.0 0.00 0.00 0.00 96 1014.4
20200705125309 74 57 1.0 2.0 0.00 0.00 0.00 96 1014.3
20200705125205 74 57 1.0 2.0 0.00 0.00 0.00 96 1014.2
20200705125105 74 57 1.0 2.0 0.00 0.00 0.00 95 1014.4
20200705125006 74 57 1.0 2.0 0.00 0.00 0.00 95 1014.1
20200705124906 74 58 1.0 2.0 0.00 0.00 0.00 95 1014.3
20200705124805 74 58 1.0 2.0 0.00 0.00 0.00 95 1014.3
20200705124705 74 58 1.0 2.0 0.00 0.00 0.00 95 1014.3
20200705124605 74 58 1.0 2.0 0.00 0.00 0.00 95 1014.2
20200705124506 74 58 1.0 2.0 0.00 0.00 0.00 96 1014.3
20200705124406 74 58 1.0 1.0 0.00 0.00 0.00 95 1014.2
20200705124305 74 58 1.0 1.0 0.00 0.00 0.00 95 1014.2
20200705124207 74 58 1.0 3.0 0.00 0.00 0.00 95 1014.3
20200705124104 74 58 1.0 3.0 0.00 0.00 0.00 95 1014.3
20200705124008 74 58 1.0 3.0 0.00 0.00 0.00 95 1014.2
20200705123905 74 57 1.0 3.0 0.00 0.00 0.00 95 1014.3
20200705123806 73 57 1.0 3.0 0.00 0.00 0.00 95 1014.1
20200705123705 73 57 1.0 3.0 0.00 0.00 0.00 96 1014.3
20200705123605 73 57 1.0 3.0 0.00 0.00 0.00 96 1014.1
20200705123507 73 57 2.0 3.0 0.00 0.00 0.00 96 1014.4
20200705123405 73 57 2.0 3.0 0.00 0.00 0.00 96 1014.1
20200705123306 73 56 2.0 3.0 0.00 0.00 0.00 96 1014.1
20200705123205 73 56 2.0 3.0 0.00 0.00 0.00 96 1014.2
20200705123105 73 56 1.0 3.0 0.00 0.00 0.00 97 1014.4
20200705123006 73 56 2.0 3.0 0.00 0.00 0.00 97 1014.1
20200705122905 73 56 1.0 3.0 0.00 0.00 0.00 97 1014.3
20200705122805 73 57 1.0 3.0 0.00 0.00 0.00 97 1014.3
20200705122707 73 57 1.0 3.0 0.00 0.00 0.00 97 1014.0
20200705122605 73 57 1.0 3.0 0.00 0.00 0.00 97 1014.0
20200705122507 73 57 1.0 3.0 0.00 0.00 0.00 97 1014.2
20200705122406 73 57 1.0 2.0 0.00 0.00 0.00 96 1014.1
20200705122306 73 57 1.0 2.0 0.00 0.00 0.00 96 1013.9
20200705122205 73 57 1.0 2.0 0.00 0.00 0.00 96 1014.1
20200705122105 73 57 0.0 1.0 0.00 0.00 0.00 96 1013.7
20200705122005 73 57 0.0 1.0 0.00 0.00 0.00 96 1014.0
20200705121905 72 57 0.0 1.0 0.00 0.00 0.00 96 1014.1
20200705121805 72 57 0.0 1.0 0.00 0.00 0.00 96 1014.1
20200705121705 72 57 0.0 1.0 0.00 0.00 0.00 96 1013.8
20200705121608 72 57 0.0 1.0 0.00 0.00 0.00 96 1014.2
20200705121518 72 57 0.0 1.0 0.00 0.00 0.00 96 1014.0
20200705121405 72 57 0.0 1.0 0.00 0.00 0.00 95 1014.1
20200705121305 72 57 0.0 1.0 0.00 0.00 0.00 95 1014.2
20200705121205 72 57 0.0 1.0 0.00 0.00 0.00 95 1014.0
20200705121105 72 57 0.0 1.0 0.00 0.00 0.00 94 1013.9
20200705121006 72 57 0.0 1.0 0.00 0.00 0.00 94 1014.0
20200705120905 72 57 0.0 1.0 0.00 0.00 0.00 94 1014.1
20200705120805 72 0 0.0 0.0 0.00 0.00 0.00 94 1014.0
20200705120708 72 0 0.0 0.0 0.00 0.00 0.00 94 1014.0
20200705120606 72 0 0.0 0.0 0.00 0.00 0.00 94 1014.1
20200705120505 72 0 0.0 0.0 0.00 0.00 0.00 94 1013.8
20200705120405 72 0 0.0 0.0 0.00 0.00 0.00 94 1014.1
20200705120305 72 0 0.0 0.0 0.00 0.00 0.00 94 1013.8
20200705120206 72 0 0.0 0.0 0.00 0.00 0.00 94 1013.9
20200705120105 72 57 0.0 1.0 0.00 0.00 0.00 95 1013.8
20200705120006 72 57 0.0 1.0 0.00 0.00 0.00 94 1013.9
20200705115905 72 57 0.0 1.0 0.00 0.00 0.00 94 1013.9
20200705115808 72 57 0.0 1.0 0.00 0.00 0.00 94 1013.9
20200705115705 72 57 0.0 1.0 0.00 0.00 0.00 94 1014.0
20200705115605 72 57 0.0 1.0 0.00 0.00 0.00 94 1013.9
20200705115507 72 57 0.0 1.0 0.00 0.00 0.00 94 1013.9
20200705115409 72 57 0.0 1.0 0.00 0.00 0.00 94 1014.0
20200705115305 72 57 0.0 1.0 0.00 0.00 0.00 94 1014.1
20200705115215 71 57 0.0 1.0 0.00 0.00 0.00 94 1014.0
20200705115105 71 57 0.0 1.0 0.00 0.00 0.00 94 1013.9
20200705115007 71 57 0.0 1.0 0.00 0.00 0.00 94 1013.8
20200705114905 71 57 0.0 1.0 0.00 0.00 0.00 94 1014.0
20200705114805 71 57 0.0 1.0 0.00 0.00 0.00 95 1013.8
20200705114705 71 57 0.0 1.0 0.00 0.00 0.00 95 1013.9
20200705114604 71 57 0.0 1.0 0.00 0.00 0.00 95 1014.0
20200705114509 71 57 0.0 1.0 0.00 0.00 0.00 94 1014.0
20200705114405 71 57 0.0 1.0 0.00 0.00 0.00 94 1014.0
20200705114305 71 57 0.0 1.0 0.00 0.00 0.00 93 1014.1
20200705114205 71 57 0.0 1.0 0.00 0.00 0.00 93 1014.0
20200705114106 71 57 0.0 1.0 0.00 0.00 0.00 93 1014.1
20200705114005 71 57 0.0 1.0 0.00 0.00 0.00 93 1013.9
20200705113905 71 57 0.0 1.0 0.00 0.00 0.00 93 1013.9
20200705113805 71 57 0.0 1.0 0.00 0.00 0.00 93 1013.9
20200705113705 71 57 0.0 1.0 0.00 0.00 0.00 93 1014.0
20200705113605 71 57 0.0 1.0 0.00 0.00 0.00 93 1013.8
20200705113506 71 57 0.0 1.0 0.00 0.00 0.00 93 1014.0
20200705113406 71 57 0.0 1.0 0.00 0.00 0.00 93 1013.7
20200705113307 71 57 0.0 1.0 0.00 0.00 0.00 93 1013.7
20200705113205 71 57 0.0 1.0 0.00 0.00 0.00 93 1013.9
20200705113105 71 57 0.0 1.0 0.00 0.00 0.00 93 1013.8
20200705113011 71 57 0.0 1.0 0.00 0.00 0.00 93 1013.8
20200705112905 71 57 0.0 1.0 0.00 0.00 0.00 92 1013.9
20200705112805 71 57 0.0 1.0 0.00 0.00 0.00 92 1013.8
20200705112705 71 57 0.0 1.0 0.00 0.00 0.00 93 1013.5
20200705112604 71 57 0.0 1.0 0.00 0.00 0.00 92 1013.9
20200705112506 71 57 0.0 1.0 0.00 0.00 0.00 92 1013.7
20200705112406 71 57 0.0 1.0 0.00 0.00 0.00 92 1013.8
20200705112305 71 57 0.0 1.0 0.00 0.00 0.00 92 1013.5
20200705112205 71 57 0.0 1.0 0.00 0.00 0.00 92 1013.6
20200705112105 71 57 0.0 1.0 0.00 0.00 0.00 92 1013.6
20200705112006 71 0 0.0 0.0 0.00 0.00 0.00 92 1013.8
20200705111905 71 0 0.0 0.0 0.00 0.00 0.00 92 1013.8
20200705111805 71 0 0.0 0.0 0.00 0.00 0.00 92 1013.8
20200705111705 71 57 0.0 1.0 0.00 0.00 0.00 92 1013.5
20200705111606 71 57 0.0 1.0 0.00 0.00 0.00 91 1013.5
20200705111508 71 57 0.0 1.0 0.00 0.00 0.00 91 1013.6
20200705111405 71 57 0.0 1.0 0.00 0.00 0.00 92 1013.6
20200705111304 71 57 0.0 1.0 0.00 0.00 0.00 91 1013.6
20200705111205 71 57 0.0 1.0 0.00 0.00 0.00 91 1013.6
20200705111105 71 57 0.0 1.0 0.00 0.00 0.00 92 1013.5
20200705111005 71 57 0.0 1.0 0.00 0.00 0.00 92 1013.5
20200705110905 71 57 0.0 1.0 0.00 0.00 0.00 92 1013.7
20200705110805 71 57 0.0 1.0 0.00 0.00 0.00 92 1013.5
20200705110705 71 0 0.0 0.0 0.00 0.00 0.00 92 1013.5
20200705110609 71 0 0.0 0.0 0.00 0.00 0.00 92 1013.7
20200705110505 71 0 0.0 0.0 0.00 0.00 0.00 92 1013.4
20200705110406 71 0 0.0 0.0 0.00 0.00 0.00 92 1013.7
20200705110305 71 0 0.0 0.0 0.00 0.00 0.00 92 1013.6
20200705110205 71 0 0.0 0.0 0.00 0.00 0.00 92 1013.5
20200705110105 71 0 0.0 0.0 0.00 0.00 0.00 92 1013.6
20200705110010 71 0 0.0 0.0 0.00 0.00 0.00 92 1013.5
20200705105905 71 0 0.0 0.0 0.00 0.00 0.00 92 1013.6
20200705105805 71 0 0.0 0.0 0.00 0.00 0.00 92 1013.4
20200705105705 71 0 0.0 0.0 0.00 0.00 0.00 92 1013.6
20200705105605 71 0 0.0 0.0 0.00 0.00 0.00 93 1013.5
20200705105505 71 0 0.0 0.0 0.00 0.00 0.00 92 1013.7
20200705105405 71 0 0.0 0.0 0.00 0.00 0.00 91 1013.5
20200705105305 71 0 0.0 0.0 0.00 0.00 0.00 91 1013.5
20200705105205 71 0 0.0 0.0 0.00 0.00 0.00 91 1013.4
20200705105105 71 0 0.0 0.0 0.00 0.00 0.00 91 1013.6
20200705105005 71 0 0.0 0.0 0.00 0.00 0.00 91 1013.6
20200705104905 71 0 0.0 0.0 0.00 0.00 0.00 91 1013.5
20200705104805 71 0 0.0 0.0 0.00 0.00 0.00 91 1013.3
20200705104709 71 57 0.0 0.0 0.00 0.00 0.00 91 1013.5
20200705104605 71 57 0.0 1.0 0.00 0.00 0.00 91 1013.4
20200705104505 71 57 0.0 1.0 0.00 0.00 0.00 91 1013.6
20200705104406 71 57 0.0 1.0 0.00 0.00 0.00 91 1013.6
20200705104305 71 57 0.0 1.0 0.00 0.00 0.00 91 1013.4
20200705104205 71 57 0.0 1.0 0.00 0.00 0.00 91 1013.6
20200705104105 71 57 0.0 1.0 0.00 0.00 0.00 91 1013.4
20200705104004 71 57 0.0 1.0 0.00 0.00 0.00 91 1013.7
20200705103905 71 57 0.0 1.0 0.00 0.00 0.00 90 1013.6
20200705103806 71 57 0.0 1.0 0.00 0.00 0.00 90 1013.6
20200705103705 71 57 0.0 1.0 0.00 0.00 0.00 90 1013.6
20200705103605 71 57 0.0 1.0 0.00 0.00 0.00 91 1013.4
20200705103505 71 57 0.0 1.0 0.00 0.00 0.00 91 1013.5
20200705103405 71 57 0.0 1.0 0.00 0.00 0.00 91 1013.5
20200705103305 71 57 0.0 1.0 0.00 0.00 0.00 91 1013.5
20200705103205 71 57 0.0 1.0 0.00 0.00 0.00 91 1013.5
20200705103107 71 57 0.0 1.0 0.00 0.00 0.00 90 1013.4
20200705103011 71 57 0.0 1.0 0.00 0.00 0.00 91 1013.3
20200705102905 71 57 0.0 1.0 0.00 0.00 0.00 91 1013.3
20200705102804 71 57 0.0 1.0 0.00 0.00 0.00 91 1013.5
20200705102706 71 57 0.0 1.0 0.00 0.00 0.00 91 1013.3
20200705102605 71 0 0.0 0.0 0.00 0.00 0.00 91 1013.5
20200705102505 71 0 0.0 0.0 0.00 0.00 0.00 91 1013.5
20200705102405 71 0 0.0 0.0 0.00 0.00 0.00 90 1013.4
20200705102307 71 0 0.0 0.0 0.00 0.00 0.00 90 1013.4
20200705102205 71 0 0.0 0.0 0.00 0.00 0.00 90 1013.3
20200705102105 71 0 0.0 0.0 0.00 0.00 0.00 90 1013.4
20200705102005 71 0 0.0 0.0 0.00 0.00 0.00 90 1013.4
20200705101905 71 0 0.0 0.0 0.00 0.00 0.00 90 1013.6
20200705101806 71 0 0.0 0.0 0.00 0.00 0.00 90 1013.3
20200705101707 71 0 0.0 0.0 0.00 0.00 0.00 91 1013.2
20200705101605 71 0 0.0 0.0 0.00 0.00 0.00 91 1013.4
20200705101506 71 0 0.0 0.0 0.00 0.00 0.00 90 1013.2
20200705101406 71 0 0.0 0.0 0.00 0.00 0.00 90 1013.2
20200705101305 71 0 0.0 0.0 0.00 0.00 0.00 90 1013.0
20200705101205 71 0 0.0 0.0 0.00 0.00 0.00 91 1013.5
20200705101104 71 0 0.0 0.0 0.00 0.00 0.00 91 1013.6
20200705101005 71 0 0.0 0.0 0.00 0.00 0.00 91 1013.2
20200705100905 71 0 0.0 0.0 0.00 0.00 0.00 91 1013.3
20200705100805 71 0 0.0 0.0 0.00 0.00 0.00 91 1013.3
20200705100704 71 0 0.0 0.0 0.00 0.00 0.00 91 1013.2
20200705100605 71 0 0.0 0.0 0.00 0.00 0.00 91 1013.3
20200705100505 71 0 0.0 0.0 0.00 0.00 0.00 91 1013.3
20200705100405 71 0 0.0 0.0 0.00 0.00 0.00 91 1013.3
20200705100305 71 0 0.0 0.0 0.00 0.00 0.00 91 1013.2
20200705100206 71 0 0.0 0.0 0.00 0.00 0.00 91 1013.2
20200705100107 71 0 0.0 0.0 0.00 0.00 0.00 90 1013.1
20200705100005 71 0 0.0 0.0 0.00 0.00 0.00 90 1013.1
20200705095906 71 0 0.0 0.0 0.00 0.00 0.00 90 1013.2
20200705095804 71 0 0.0 0.0 0.00 0.00 0.00 90 1013.2
20200705095705 71 0 0.0 0.0 0.00 0.00 0.00 90 1013.2
20200705095605 71 0 0.0 0.0 0.00 0.00 0.00 90 1013.3
20200705095505 71 0 0.0 0.0 0.00 0.00 0.00 90 1013.2
20200705095405 71 0 0.0 0.0 0.00 0.00 0.00 90 1013.4
20200705095306 71 0 0.0 0.0 0.00 0.00 0.00 90 1013.2
20200705095205 71 0 0.0 0.0 0.00 0.00 0.00 90 1013.5
20200705095105 71 0 0.0 0.0 0.00 0.00 0.00 90 1013.3
20200705095005 71 0 0.0 0.0 0.00 0.00 0.00 90 1013.1
20200705094906 71 0 0.0 0.0 0.00 0.00 0.00 90 1013.3
20200705094805 71 0 0.0 0.0 0.00 0.00 0.00 90 1013.4
20200705094705 71 0 0.0 0.0 0.00 0.00 0.00 90 1013.3
20200705094604 71 0 0.0 0.0 0.00 0.00 0.00 90 1013.3
20200705094505 71 0 0.0 0.0 0.00 0.00 0.00 90 1013.3
20200705094405 71 0 0.0 0.0 0.00 0.00 0.00 90 1013.3
20200705094304 71 0 0.0 0.0 0.00 0.00 0.00 90 1013.3
20200705094206 71 0 0.0 0.0 0.00 0.00 0.00 90 1013.4
20200705094108 71 0 0.0 0.0 0.00 0.00 0.00 90 1013.3
20200705094007 71 0 0.0 0.0 0.00 0.00 0.00 90 1013.4
20200705093905 71 0 0.0 0.0 0.00 0.00 0.00 90 1013.2
20200705093805 71 0 0.0 0.0 0.00 0.00 0.00 90 1013.2
20200705093706 71 0 0.0 0.0 0.00 0.00 0.00 90 1013.3
20200705093605 71 0 0.0 0.0 0.00 0.00 0.00 90 1013.2
20200705093505 71 0 0.0 0.0 0.00 0.00 0.00 90 1013.3
20200705093404 71 0 0.0 0.0 0.00 0.00 0.00 90 1012.9
20200705093305 71 0 0.0 0.0 0.00 0.00 0.00 90 1013.2
20200705093205 71 0 0.0 0.0 0.00 0.00 0.00 91 1013.2
20200705093105 71 0 0.0 0.0 0.00 0.00 0.00 91 1013.2
20200705093006 71 0 0.0 0.0 0.00 0.00 0.00 91 1013.3
20200705092905 71 0 0.0 0.0 0.00 0.00 0.00 90 1013.2
20200705092805 71 0 0.0 0.0 0.00 0.00 0.00 90 1013.1
20200705092705 71 0 0.0 0.0 0.00 0.00 0.00 90 1013.1
20200705092604 71 0 0.0 0.0 0.00 0.00 0.00 90 1013.1
20200705092505 71 0 0.0 0.0 0.00 0.00 0.00 90 1013.1
20200705092408 71 0 0.0 0.0 0.00 0.00 0.00 91 1013.1
20200705092304 71 0 0.0 0.0 0.00 0.00 0.00 91 1013.1
20200705092204 71 0 0.0 0.0 0.00 0.00 0.00 90 1013.0
20200705092105 71 0 0.0 0.0 0.00 0.00 0.00 90 1013.0
20200705092005 71 0 0.0 0.0 0.00 0.00 0.00 90 1012.9
20200705091905 71 0 0.0 0.0 0.00 0.00 0.00 90 1012.9
20200705091804 71 0 0.0 0.0 0.00 0.00 0.00 90 1013.1
20200705091705 71 0 0.0 0.0 0.00 0.00 0.00 90 1013.1
20200705091606 72 0 0.0 0.0 0.00 0.00 0.00 90 1012.7
20200705091505 72 0 0.0 0.0 0.00 0.00 0.00 90 1013.0
20200705091404 72 0 0.0 0.0 0.00 0.00 0.00 90 1012.9
20200705091305 72 0 0.0 0.0 0.00 0.00 0.00 90 1012.9
20200705091205 72 0 0.0 0.0 0.00 0.00 0.00 90 1012.8
20200705091104 72 0 0.0 0.0 0.00 0.00 0.00 90 1013.0
20200705091005 72 0 0.0 0.0 0.00 0.00 0.00 90 1013.0
20200705090905 72 0 0.0 0.0 0.00 0.00 0.00 91 1012.9
20200705090810 72 0 0.0 0.0 0.00 0.00 0.00 91 1012.8
20200705090705 72 0 0.0 0.0 0.00 0.00 0.00 91 1012.7
20200705090604 72 0 0.0 0.0 0.00 0.00 0.00 91 1012.8
20200705090505 72 0 0.0 0.0 0.00 0.00 0.00 92 1012.7
20200705090405 72 0 0.0 0.0 0.00 0.00 0.00 92 1012.7
20200705090305 72 0 0.0 0.0 0.00 0.00 0.00 92 1012.7
20200705090206 72 0 0.0 0.0 0.00 0.00 0.00 92 1012.8
20200705090105 72 0 0.0 0.0 0.00 0.00 0.00 92 1012.9
20200705090010 72 0 0.0 0.0 0.00 0.00 0.00 90 1012.6
20200705085906 72 0 0.0 0.0 0.00 0.00 0.00 90 1012.6
20200705085805 72 0 0.0 0.0 0.00 0.00 0.00 90 1012.8
20200705085704 72 0 0.0 0.0 0.00 0.00 0.00 90 1012.6
20200705085606 72 0 0.0 0.0 0.00 0.00 0.00 90 1012.6
20200705085506 72 0 0.0 0.0 0.00 0.00 0.00 90 1012.9
20200705085406 72 0 0.0 0.0 0.00 0.00 0.00 90 1012.8
20200705085304 72 0 0.0 0.0 0.00 0.00 0.00 90 1012.7
20200705085205 72 0 0.0 0.0 0.00 0.00 0.00 90 1012.7
20200705085105 72 0 0.0 0.0 0.00 0.00 0.00 90 1012.8
20200705085007 72 0 0.0 0.0 0.00 0.00 0.00 90 1012.6
20200705084907 72 0 0.0 0.0 0.00 0.00 0.00 89 1012.7
20200705084805 72 0 0.0 0.0 0.00 0.00 0.00 89 1012.7
20200705084705 72 0 0.0 0.0 0.00 0.00 0.00 89 1012.7
20200705084604 72 0 0.0 0.0 0.00 0.00 0.00 90 1012.6
20200705084506 72 0 0.0 0.0 0.00 0.00 0.00 90 1012.6
20200705084406 72 0 0.0 0.0 0.00 0.00 0.00 89 1012.8
20200705084308 72 0 0.0 0.0 0.00 0.00 0.00 89 1012.8
20200705084205 72 0 0.0 0.0 0.00 0.00 0.00 89 1012.8
20200705084106 72 0 0.0 0.0 0.00 0.00 0.00 90 1012.6
20200705084004 72 0 0.0 0.0 0.00 0.00 0.00 90 1012.7
20200705083906 72 0 0.0 0.0 0.00 0.00 0.00 89 1012.5
20200705083806 72 0 0.0 0.0 0.00 0.00 0.00 89 1012.5
20200705083705 72 0 0.0 0.0 0.00 0.00 0.00 90 1012.5
20200705083604 72 0 0.0 0.0 0.00 0.00 0.00 90 1012.7
20200705083505 72 0 0.0 0.0 0.00 0.00 0.00 90 1012.7
20200705083406 72 0 0.0 0.0 0.00 0.00 0.00 89 1012.5
20200705083305 72 0 0.0 0.0 0.00 0.00 0.00 90 1012.8
20200705083204 72 0 0.0 0.0 0.00 0.00 0.00 90 1012.9
20200705083105 72 0 0.0 0.0 0.00 0.00 0.00 90 1012.6
20200705083006 72 0 0.0 0.0 0.00 0.00 0.00 90 1012.5
20200705082905 72 0 0.0 0.0 0.00 0.00 0.00 90 1012.7
20200705082805 72 0 0.0 0.0 0.00 0.00 0.00 90 1012.7
20200705082704 72 0 0.0 0.0 0.00 0.00 0.00 90 1012.7
20200705082605 72 0 0.0 0.0 0.00 0.00 0.00 90 1012.7
20200705082506 72 0 0.0 0.0 0.00 0.00 0.00 90 1012.8
20200705082405 72 0 0.0 0.0 0.00 0.00 0.00 90 1012.7
20200705082304 72 0 0.0 0.0 0.00 0.00 0.00 90 1012.5
20200705082215 72 0 0.0 0.0 0.00 0.00 0.00 90 1012.6
20200705082105 72 0 0.0 0.0 0.00 0.00 0.00 90 1012.6
20200705082004 72 0 0.0 0.0 0.00 0.00 0.00 90 1012.7
20200705081904 72 0 0.0 0.0 0.00 0.00 0.00 90 1012.6
20200705081805 72 0 0.0 0.0 0.00 0.00 0.00 90 1012.5
20200705081705 72 0 0.0 0.0 0.00 0.00 0.00 90 1012.7
20200705081605 72 0 0.0 0.0 0.00 0.00 0.00 89 1012.6
20200705081504 72 0 0.0 0.0 0.00 0.00 0.00 89 1012.6
20200705081406 72 0 0.0 0.0 0.00 0.00 0.00 89 1012.5
20200705081305 72 0 0.0 0.0 0.00 0.00 0.00 89 1012.6
20200705081205 72 0 0.0 0.0 0.00 0.00 0.00 89 1012.5
20200705081104 72 0 0.0 0.0 0.00 0.00 0.00 89 1012.6
20200705081012 72 0 0.0 0.0 0.00 0.00 0.00 89 1012.6
20200705080906 72 0 0.0 0.0 0.00 0.00 0.00 89 1012.4
20200705080804 72 0 0.0 0.0 0.00 0.00 0.00 89 1012.6
20200705080704 72 0 0.0 0.0 0.00 0.00 0.00 89 1012.5
20200705080605 72 0 0.0 0.0 0.00 0.00 0.00 89 1012.4
20200705080505 72 0 0.0 0.0 0.00 0.00 0.00 89 1012.7
20200705080404 72 0 0.0 0.0 0.00 0.00 0.00 89 1012.4
20200705080304 72 0 0.0 0.0 0.00 0.00 0.00 89 1012.5
20200705080205 72 0 0.0 0.0 0.00 0.00 0.00 89 1012.6
20200705080105 72 0 0.0 0.0 0.00 0.00 0.00 90 1012.5
20200705080006 72 0 0.0 0.0 0.00 0.00 0.00 90 1012.3
20200705075905 72 0 0.0 0.0 0.00 0.00 0.00 90 1012.5
20200705075804 72 0 0.0 0.0 0.00 0.00 0.00 90 1012.5
20200705075705 72 0 0.0 0.0 0.00 0.00 0.00 90 1012.6
20200705075605 72 0 0.0 0.0 0.00 0.00 0.00 90 1012.6
20200705075504 72 0 0.0 0.0 0.00 0.00 0.00 90 1012.6
20200705075404 72 0 0.0 0.0 0.00 0.00 0.00 89 1012.5
20200705075305 72 0 0.0 0.0 0.00 0.00 0.00 89 1012.6
20200705075205 73 0 0.0 0.0 0.00 0.00 0.00 89 1012.6
20200705075105 73 0 0.0 0.0 0.00 0.00 0.00 89 1012.6
20200705075004 73 0 0.0 0.0 0.00 0.00 0.00 89 1012.5
20200705074905 73 0 0.0 0.0 0.00 0.00 0.00 89 1012.4
20200705074805 73 0 0.0 0.0 0.00 0.00 0.00 89 1012.5
20200705074705 73 0 0.0 0.0 0.00 0.00 0.00 89 1012.5
20200705074605 73 0 0.0 0.0 0.00 0.00 0.00 90 1012.7
20200705074504 73 0 0.0 0.0 0.00 0.00 0.00 90 1012.7
20200705074405 73 0 0.0 0.0 0.00 0.00 0.00 91 1012.6
20200705074305 73 0 0.0 0.0 0.00 0.00 0.00 90 1012.6
20200705074205 73 0 0.0 0.0 0.00 0.00 0.00 90 1012.7
20200705074106 73 0 0.0 0.0 0.00 0.00 0.00 91 1012.5
20200705074004 73 0 0.0 0.0 0.00 0.00 0.00 90 1012.4
20200705073905 73 0 0.0 0.0 0.00 0.00 0.00 90 1012.7
20200705073805 73 0 0.0 0.0 0.00 0.00 0.00 89 1012.7
20200705073705 73 0 0.0 0.0 0.00 0.00 0.00 89 1012.7
20200705073605 73 0 0.0 0.0 0.00 0.00 0.00 89 1012.6
20200705073505 73 0 0.0 0.0 0.00 0.00 0.00 89 1012.5
20200705073405 73 0 0.0 0.0 0.00 0.00 0.00 89 1012.7
20200705073305 73 0 0.0 0.0 0.00 0.00 0.00 89 1012.6
20200705073204 73 0 0.0 0.0 0.00 0.00 0.00 89 1012.6
20200705073105 73 0 0.0 0.0 0.00 0.00 0.00 89 1012.5
20200705073007 73 0 0.0 0.0 0.00 0.00 0.00 89 1012.6
20200705072904 73 0 0.0 0.0 0.00 0.00 0.00 89 1012.5
20200705072804 73 0 0.0 0.0 0.00 0.00 0.00 89 1012.6
20200705072706 73 0 0.0 0.0 0.00 0.00 0.00 89 1012.4
20200705072605 73 0 0.0 0.0 0.00 0.00 0.00 89 1012.6
20200705072508 73 0 0.0 0.0 0.00 0.00 0.00 89 1012.7
20200705072405 73 0 0.0 0.0 0.00 0.00 0.00 88 1012.7
20200705072305 73 0 0.0 0.0 0.00 0.00 0.00 88 1012.4
20200705072205 73 0 0.0 0.0 0.00 0.00 0.00 88 1012.5
20200705072105 73 0 0.0 0.0 0.00 0.00 0.00 88 1012.5
20200705072004 73 0 0.0 0.0 0.00 0.00 0.00 88 1012.4
20200705071906 73 0 0.0 0.0 0.00 0.00 0.00 88 1012.5
20200705071809 73 0 0.0 0.0 0.00 0.00 0.00 88 1012.4
20200705071705 73 0 0.0 0.0 0.00 0.00 0.00 88 1012.4
20200705071604 73 0 0.0 0.0 0.00 0.00 0.00 88 1012.3
20200705071504 73 0 0.0 0.0 0.00 0.00 0.00 88 1012.4
20200705071405 73 0 0.0 0.0 0.00 0.00 0.00 89 1012.5
20200705071305 73 0 0.0 0.0 0.00 0.00 0.00 89 1012.4
20200705071205 73 0 0.0 0.0 0.00 0.00 0.00 89 1012.5
20200705071104 73 0 0.0 0.0 0.00 0.00 0.00 89 1012.4
20200705071005 73 0 0.0 0.0 0.00 0.00 0.00 89 1012.6
20200705070905 73 0 0.0 0.0 0.00 0.00 0.00 89 1012.5
20200705070805 73 57 0.0 1.0 0.00 0.00 0.00 89 1012.6
20200705070704 73 57 0.0 1.0 0.00 0.00 0.00 89 1012.6
20200705070607 73 57 0.0 1.0 0.00 0.00 0.00 89 1012.5
20200705070505 73 57 0.0 1.0 0.00 0.00 0.00 89 1012.6
20200705070404 73 57 0.0 1.0 0.00 0.00 0.00 89 1012.5
20200705070304 73 57 0.0 1.0 0.00 0.00 0.00 89 1012.5
20200705070206 73 57 0.0 1.0 0.00 0.00 0.00 88 1012.4
20200705070107 73 57 0.0 1.0 0.00 0.00 0.00 88 1012.7
20200705070008 73 57 0.0 1.0 0.00 0.00 0.00 88 1012.5
20200705065906 74 57 0.0 1.0 0.00 0.00 0.00 88 1012.6
20200705065805 74 57 0.0 1.0 0.00 0.00 0.00 88 1012.5
20200705065704 74 0 0.0 0.0 0.00 0.00 0.00 88 1012.6
20200705065604 74 0 0.0 0.0 0.00 0.00 0.00 88 1012.5
20200705065504 74 0 0.0 0.0 0.00 0.00 0.00 88 1012.5
20200705065405 74 0 0.0 0.0 0.00 0.00 0.00 88 1012.4
20200705065305 74 0 0.0 0.0 0.00 0.00 0.00 88 1012.5
20200705065205 74 0 0.0 0.0 0.00 0.00 0.00 89 1012.3
20200705065105 74 57 0.0 1.0 0.00 0.00 0.00 89 1012.6
20200705065005 74 57 0.0 1.0 0.00 0.00 0.00 89 1012.6
20200705064905 74 57 0.0 1.0 0.00 0.00 0.00 89 1012.6
20200705064805 74 57 0.0 1.0 0.00 0.00 0.00 89 1012.5
20200705064704 74 57 0.0 1.0 0.00 0.00 0.00 89 1012.5
20200705064605 74 57 0.0 1.0 0.00 0.00 0.00 89 1012.6
20200705064505 74 57 0.0 1.0 0.00 0.00 0.00 89 1012.5
20200705064404 74 57 0.0 1.0 0.00 0.00 0.00 89 1012.4
20200705064305 74 57 0.0 1.0 0.00 0.00 0.00 89 1012.5
20200705064205 74 57 0.0 1.0 0.00 0.00 0.00 89 1012.5
20200705064105 74 0 0.0 0.0 0.00 0.00 0.00 89 1012.6
20200705064004 74 57 0.0 0.0 0.00 0.00 0.00 89 1012.7
20200705063904 74 57 0.0 0.0 0.00 0.00 0.00 89 1012.5
20200705063805 74 57 0.0 0.0 0.00 0.00 0.00 89 1012.4
20200705063705 74 57 0.0 0.0 0.00 0.00 0.00 90 1012.6
20200705063604 74 57 0.0 0.0 0.00 0.00 0.00 90 1012.8
20200705063506 74 57 0.0 1.0 0.00 0.00 0.00 90 1012.5
20200705063405 74 57 0.0 1.0 0.00 0.00 0.00 90 1012.7
20200705063305 74 57 0.0 1.0 0.00 0.00 0.00 90 1012.7
20200705063204 74 57 0.0 1.0 0.00 0.00 0.00 90 1012.6
20200705063104 74 57 0.0 1.0 0.00 0.00 0.00 90 1012.5
20200705063018 74 57 0.0 1.0 0.00 0.00 0.00 91 1012.5
20200705062907 74 57 0.0 1.0 0.00 0.00 0.00 90 1012.5
20200705062804 74 57 0.0 1.0 0.00 0.00 0.00 90 1012.3
20200705062705 74 57 0.0 1.0 0.00 0.00 0.00 91 1012.6
20200705062605 74 57 0.0 1.0 0.00 0.00 0.00 91 1012.6
20200705062504 74 57 0.0 1.0 0.00 0.00 0.00 91 1012.7
20200705062405 74 57 0.0 1.0 0.00 0.00 0.00 90 1012.5
20200705062305 74 57 0.0 1.0 0.00 0.00 0.00 90 1012.4
20200705062204 74 57 0.0 1.0 0.00 0.00 0.00 90 1012.5
20200705062104 74 0 0.0 0.0 0.00 0.00 0.00 88 1012.7
20200705062005 74 0 0.0 0.0 0.00 0.00 0.00 88 1012.7
20200705061905 74 0 0.0 0.0 0.00 0.00 0.00 88 1012.5
20200705061804 74 0 0.0 0.0 0.00 0.00 0.00 88 1012.4
20200705061704 74 0 0.0 0.0 0.00 0.00 0.00 88 1012.5
20200705061605 74 0 0.0 0.0 0.00 0.00 0.00 88 1012.5
20200705061505 74 0 0.0 0.0 0.00 0.00 0.00 88 1012.4
20200705061404 74 0 0.0 0.0 0.00 0.00 0.00 88 1012.7
20200705061304 74 0 0.0 0.0 0.00 0.00 0.00 88 1012.5
20200705061205 74 0 0.0 0.0 0.00 0.00 0.00 88 1012.7
20200705061105 74 0 0.0 0.0 0.00 0.00 0.00 88 1012.7
20200705061005 74 0 0.0 0.0 0.00 0.00 0.00 88 1012.6
20200705060905 74 0 0.0 0.0 0.00 0.00 0.00 88 1012.7
20200705060804 74 0 0.0 0.0 0.00 0.00 0.00 87 1012.6
20200705060705 74 0 0.0 0.0 0.00 0.00 0.00 88 1012.7
20200705060608 74 0 0.0 0.0 0.00 0.00 0.00 88 1012.7
20200705060505 74 0 0.0 0.0 0.00 0.00 0.00 88 1012.7
20200705060404 74 0 0.0 0.0 0.00 0.00 0.00 88 1012.6
20200705060304 74 0 0.0 0.0 0.00 0.00 0.00 88 1012.6
20200705060206 74 0 0.0 0.0 0.00 0.00 0.00 88 1012.5
20200705060105 75 0 0.0 0.0 0.00 0.00 0.00 89 1012.9
20200705060007 75 0 0.0 0.0 0.00 0.00 0.00 89 1012.6
20200705055906 75 0 0.0 0.0 0.00 0.00 0.00 88 1012.6
20200705055805 75 0 0.0 0.0 0.00 0.00 0.00 88 1012.5
20200705055704 75 0 0.0 0.0 0.00 0.00 0.00 88 1012.6
20200705055604 75 0 0.0 0.0 0.00 0.00 0.00 87 1012.3
20200705055504 75 56 0.0 0.0 0.00 0.00 0.00 87 1012.7
20200705055405 75 56 0.0 1.0 0.00 0.00 0.00 88 1012.6
20200705055305 75 56 0.0 1.0 0.00 0.00 0.00 87 1012.7
20200705055205 75 56 0.0 1.0 0.00 0.00 0.00 87 1012.5
20200705055104 75 56 0.0 1.0 0.00 0.00 0.00 87 1012.7
20200705055005 75 56 0.0 1.0 0.00 0.00 0.00 87 1012.6
20200705054905 75 56 0.0 1.0 0.00 0.00 0.00 87 1012.7
20200705054804 75 56 0.0 1.0 0.00 0.00 0.00 87 1012.7
20200705054704 75 56 0.0 1.0 0.00 0.00 0.00 87 1012.6
20200705054605 75 56 0.0 1.0 0.00 0.00 0.00 87 1012.8
20200705054505 75 57 0.0 1.0 0.00 0.00 0.00 87 1012.5
20200705054405 75 57 0.0 1.0 0.00 0.00 0.00 87 1012.4
20200705054304 75 57 0.0 1.0 0.00 0.00 0.00 87 1012.8
20200705054204 75 57 0.0 1.0 0.00 0.00 0.00 87 1012.9
20200705054105 75 57 0.0 1.0 0.00 0.00 0.00 88 1012.7
20200705054005 75 57 0.0 1.0 0.00 0.00 0.00 88 1012.5
20200705053904 75 57 0.0 1.0 0.00 0.00 0.00 88 1012.7
20200705053804 75 57 0.0 1.0 0.00 0.00 0.00 88 1012.8
20200705053705 75 57 0.0 2.0 0.00 0.00 0.00 88 1012.7
20200705053604 75 55 1.0 2.0 0.00 0.00 0.00 88 1012.7
20200705053505 75 47 1.0 2.0 0.00 0.00 0.00 88 1012.8
20200705053405 75 41 1.0 2.0 0.00 0.00 0.00 88 1012.8
20200705053305 75 34 1.0 4.0 0.00 0.00 0.00 88 1012.8
20200705053205 75 30 2.0 4.0 0.00 0.00 0.00 88 1012.9
20200705053104 75 28 2.0 4.0 0.00 0.00 0.00 89 1012.8
20200705053006 75 27 2.0 4.0 0.00 0.00 0.00 89 1012.9
20200705052905 75 25 2.0 4.0 0.00 0.00 0.00 88 1012.9
20200705052804 75 26 2.0 4.0 0.00 0.00 0.00 87 1012.8
20200705052704 75 26 2.0 4.0 0.00 0.00 0.00 87 1013.0
20200705052606 75 26 2.0 4.0 0.00 0.00 0.00 87 1012.8
20200705052505 75 29 2.0 4.0 0.00 0.00 0.00 87 1012.8
20200705052404 75 33 2.0 4.0 0.00 0.00 0.00 87 1012.9
20200705052304 75 37 2.0 3.0 0.00 0.00 0.00 87 1012.7
20200705052204 75 42 2.0 3.0 0.00 0.00 0.00 87 1013.0
20200705052104 75 49 2.0 3.0 0.00 0.00 0.00 87 1013.0
20200705052006 76 55 2.0 3.0 0.00 0.00 0.00 87 1012.9
20200705051904 76 60 2.0 3.0 0.00 0.00 0.00 88 1012.9
20200705051805 76 63 2.0 2.0 0.00 0.00 0.00 87 1013.1
20200705051705 76 60 2.0 3.0 0.00 0.00 0.00 87 1012.9
20200705051605 76 57 2.0 3.0 0.00 0.00 0.00 87 1013.1
20200705051505 76 54 2.0 3.0 0.00 0.00 0.00 87 1013.0
20200705051404 76 49 2.0 3.0 0.00 0.00 0.00 87 1012.8
20200705051307 76 47 2.0 3.0 0.00 0.00 0.00 87 1012.8
20200705051204 76 45 2.0 3.0 0.00 0.00 0.00 87 1012.9
20200705051106 76 41 2.0 3.0 0.00 0.00 0.00 87 1013.1
20200705051004 76 37 2.0 3.0 0.00 0.00 0.00 87 1013.0
20200705050904 76 35 2.0 3.0 0.00 0.00 0.00 87 1013.3
20200705050805 76 33 2.0 3.0 0.00 0.00 0.00 86 1013.1
20200705050704 76 33 2.0 2.0 0.00 0.00 0.00 86 1013.2
20200705050605 76 33 2.0 2.0 0.00 0.00 0.00 86 1013.1
20200705050505 76 33 2.0 2.0 0.00 0.00 0.00 86 1013.2
20200705050404 76 33 2.0 2.0 0.00 0.00 0.00 85 1013.1
20200705050307 76 30 2.0 3.0 0.00 0.00 0.00 85 1013.1
20200705050205 76 23 2.0 3.0 0.00 0.00 0.00 85 1013.1
20200705050104 76 13 2.0 3.0 0.00 0.00 0.00 85 1013.1
20200705050011 76 3 2.0 3.0 0.00 0.00 0.00 85 1013.4
20200705045905 76 354 2.0 3.0 0.00 0.00 0.00 85 1013.3
20200705045805 76 346 2.0 3.0 0.00 0.00 0.00 85 1013.1
20200705045709 76 334 2.0 3.0 0.00 0.00 0.00 86 1013.1
20200705045604 76 323 1.0 3.0 0.00 0.00 0.00 86 1013.5
20200705045505 76 310 1.0 3.0 0.00 0.00 0.00 85 1013.2
20200705045404 76 300 1.0 3.0 0.00 0.00 0.00 86 1013.5
20200705045304 76 295 1.0 2.0 0.00 0.00 0.00 86 1013.3
20200705045205 76 295 1.0 2.0 0.00 0.00 0.00 86 1013.3
20200705045105 76 295 1.0 2.0 0.00 0.00 0.00 86 1013.4
20200705045005 76 295 1.0 3.0 0.00 0.00 0.00 86 1013.3
20200705044904 76 295 1.0 3.0 0.00 0.00 0.00 85 1013.5
20200705044805 76 295 1.0 3.0 0.00 0.00 0.00 85 1013.3
20200705044704 76 295 1.0 3.0 0.00 0.00 0.00 85 1013.7
20200705044610 76 295 1.0 3.0 0.00 0.00 0.00 85 1013.3
20200705044506 76 295 1.0 3.0 0.00 0.00 0.00 85 1013.2
20200705044404 76 295 1.0 3.0 0.00 0.00 0.00 86 1013.2
20200705044304 76 295 1.0 3.0 0.00 0.00 0.00 86 1013.3
20200705044205 76 295 1.0 3.0 0.00 0.00 0.00 86 1013.2
20200705044104 76 295 1.0 3.0 0.00 0.00 0.00 86 1013.4
20200705044004 76 295 1.0 2.0 0.00 0.00 0.00 86 1013.4
20200705043905 76 295 1.0 2.0 0.00 0.00 0.00 86 1013.5
20200705043805 76 295 1.0 2.0 0.00 0.00 0.00 85 1013.4
20200705043704 76 295 1.0 2.0 0.00 0.00 0.00 85 1013.6
20200705043605 76 295 1.0 2.0 0.00 0.00 0.00 85 1013.4
20200705043505 76 295 1.0 2.0 0.00 0.00 0.00 85 1013.3
20200705043405 76 295 1.0 2.0 0.00 0.00 0.00 85 1013.3
20200705043304 76 295 1.0 2.0 0.00 0.00 0.00 85 1013.3
20200705043204 76 295 1.0 2.0 0.00 0.00 0.00 85 1013.5
20200705043106 76 295 1.0 2.0 0.00 0.00 0.00 85 1013.4
20200705043006 76 295 1.0 2.0 0.00 0.00 0.00 85 1013.4
20200705042904 76 295 1.0 2.0 0.00 0.00 0.00 85 1013.4
20200705042805 76 294 1.0 2.0 0.00 0.00 0.00 85 1013.2
20200705042705 76 293 1.0 2.0 0.00 0.00 0.00 85 1013.5
20200705042605 76 293 1.0 2.0 0.00 0.00 0.00 85 1013.4
20200705042505 76 293 1.0 2.0 0.00 0.00 0.00 85 1013.5
20200705042405 76 290 1.0 2.0 0.00 0.00 0.00 85 1013.4
20200705042306 76 280 1.0 2.0 0.00 0.00 0.00 85 1013.5
20200705042204 76 271 1.0 2.0 0.00 0.00 0.00 85 1013.7
20200705042105 76 263 0.0 2.0 0.00 0.00 0.00 85 1013.3
20200705042005 76 247 0.0 2.0 0.00 0.00 0.00 85 1013.4
20200705041904 76 239 0.0 1.0 0.00 0.00 0.00 84 1013.5
20200705041805 76 239 1.0 1.0 0.00 0.00 0.00 84 1013.2
20200705041704 76 239 1.0 2.0 0.00 0.00 0.00 84 1013.2
20200705041604 76 239 1.0 2.0 0.00 0.00 0.00 84 1013.6
20200705041505 76 245 1.0 3.0 0.00 0.00 0.00 84 1013.4
20200705041405 76 260 1.0 3.0 0.00 0.00 0.00 84 1013.2
20200705041305 76 274 1.0 3.0 0.00 0.00 0.00 84 1013.6
20200705041205 76 286 1.0 3.0 0.00 0.00 0.00 84 1013.6
20200705041104 76 294 2.0 3.0 0.00 0.00 0.00 84 1013.3
20200705041004 76 299 1.0 3.0 0.00 0.00 0.00 84 1013.5
20200705040905 76 308 1.0 3.0 0.00 0.00 0.00 84 1013.6
20200705040805 76 321 1.0 3.0 0.00 0.00 0.00 84 1013.6
20200705040704 76 339 2.0 4.0 0.00 0.00 0.00 84 1013.4
20200705040604 76 350 2.0 4.0 0.00 0.00 0.00 84 1013.6
20200705040504 76 357 2.0 4.0 0.00 0.00 0.00 84 1013.7
20200705040405 77 358 2.0 4.0 0.00 0.00 0.00 85 1013.8
20200705040304 76 355 2.0 4.0 0.00 0.00 0.00 84 1013.5
20200705040204 77 354 2.0 4.0 0.00 0.00 0.00 84 1013.7
20200705040104 77 350 2.0 4.0 0.00 0.00 0.00 84 1013.7
20200705040009 77 347 2.0 4.0 0.00 0.00 0.00 84 1013.5
20200705035905 77 345 2.0 4.0 0.00 0.00 0.00 84 1013.4
20200705035804 77 337 2.0 4.0 0.00 0.00 0.00 84 1013.5
20200705035704 77 325 2.0 3.0 0.00 0.00 0.00 84 1013.4
20200705035605 77 318 2.0 4.0 0.00 0.00 0.00 84 1013.4
20200705035510 77 312 2.0 4.0 0.00 0.00 0.00 84 1013.5
20200705035405 77 306 2.0 4.0 0.00 0.00 0.00 84 1013.6
20200705035304 77 305 2.0 4.0 0.00 0.00 0.00 84 1013.5
20200705035205 77 301 2.0 4.0 0.00 0.00 0.00 84 1013.5
20200705035105 77 297 3.0 4.0 0.00 0.00 0.00 84 1013.5
20200705035006 77 293 3.0 4.0 0.00 0.00 0.00 84 1013.3
20200705034904 77 285 3.0 4.0 0.00 0.00 0.00 84 1013.5
20200705034804 77 274 3.0 6.0 0.00 0.00 0.00 84 1013.6
20200705034704 77 268 3.0 10.0 0.00 0.00 0.00 84 1013.4
20200705034606 77 266 4.0 10.0 0.00 0.00 0.00 84 1013.5
20200705034516 77 263 4.0 10.0 0.00 0.00 0.00 83 1013.4
20200705034404 77 264 4.0 10.0 0.00 0.00 0.00 83 1013.5
20200705034304 77 263 4.0 10.0 0.00 0.00 0.00 83 1013.5
20200705034209 77 260 4.0 10.0 0.00 0.00 0.00 83 1013.5
20200705034105 77 259 5.0 10.0 0.00 0.00 0.00 83 1013.4
20200705034005 77 258 5.0 10.0 0.00 0.00 0.00 83 1013.6
20200705033904 77 258 5.0 10.0 0.00 0.00 0.00 83 1013.4
20200705033804 77 259 5.0 10.0 0.00 0.00 0.00 83 1013.6
20200705033705 77 259 5.0 9.0 0.00 0.00 0.00 83 1013.5
20200705033604 77 256 5.0 9.0 0.00 0.00 0.00 83 1013.5
20200705033504 77 254 5.0 9.0 0.00 0.00 0.00 83 1013.7
20200705033405 77 252 5.0 9.0 0.00 0.00 0.00 83 1013.5
20200705033305 77 249 5.0 9.0 0.00 0.00 0.00 83 1013.5
20200705033206 77 251 6.0 13.0 0.00 0.00 0.00 83 1013.6
20200705033104 77 251 6.0 13.0 0.00 0.00 0.00 83 1013.6
20200705033007 77 251 6.0 13.0 0.00 0.00 0.00 83 1013.8
20200705032905 77 247 6.0 13.0 0.00 0.00 0.00 83 1013.6
20200705032809 77 245 6.0 13.0 0.00 0.00 0.00 83 1013.7
20200705032704 77 243 6.0 13.0 0.00 0.00 0.00 83 1013.5
20200705032604 77 242 6.0 13.0 0.00 0.00 0.00 83 1013.6
20200705032505 77 239 6.0 13.0 0.00 0.00 0.00 84 1013.6
20200705032406 77 238 6.0 13.0 0.00 0.00 0.00 84 1013.6
20200705032305 77 236 6.0 13.0 0.00 0.00 0.00 84 1013.7
20200705032204 77 232 6.0 13.0 0.00 0.00 0.00 84 1013.8
20200705032104 77 229 6.0 17.0 0.00 0.00 0.00 84 1013.7
20200705032004 77 227 7.0 17.0 0.00 0.00 0.00 83 1013.9
20200705031909 77 229 7.0 17.0 0.00 0.00 0.00 83 1013.7
20200705031804 77 229 7.0 17.0 0.00 0.00 0.00 83 1013.8
20200705031704 78 228 7.0 17.0 0.00 0.00 0.00 83 1013.7
20200705031604 78 227 7.0 17.0 0.00 0.00 0.00 83 1014.1
20200705031506 78 226 7.0 17.0 0.00 0.00 0.00 83 1013.9
20200705031405 78 226 7.0 17.0 0.00 0.00 0.00 83 1013.9
20200705031304 78 225 7.0 17.0 0.00 0.00 0.00 83 1013.8
20200705031204 78 226 7.0 17.0 0.00 0.00 0.00 83 1014.0
20200705031104 78 227 6.0 14.0 0.00 0.00 0.00 83 1014.1
20200705031004 78 226 7.0 19.0 0.00 0.00 0.00 83 1014.0
20200705030905 78 227 7.0 19.0 0.00 0.00 0.00 83 1014.0
20200705030807 79 224 6.0 19.0 0.00 0.00 0.00 80 1014.0
20200705030704 79 225 7.0 19.0 0.00 0.00 0.00 80 1013.9
20200705030604 79 223 7.0 19.0 0.00 0.00 0.00 80 1014.1
20200705030505 79 224 6.0 19.0 0.00 0.00 0.00 80 1014.0
20200705030404 79 224 6.0 19.0 0.00 0.00 0.00 80 1014.0
20200705030308 79 226 6.0 19.0 0.00 0.00 0.00 80 1014.0
20200705030204 79 224 6.0 19.0 0.00 0.00 0.00 80 1014.0
20200705030104 79 223 5.0 19.0 0.00 0.00 0.00 80 1013.8
20200705030006 79 222 4.0 11.0 0.00 0.00 0.00 80 1014.1
20200705025904 79 222 4.0 11.0 0.00 0.00 0.00 80 1014.2
20200705025804 79 224 4.0 11.0 0.00 0.00 0.00 80 1014.3
20200705025704 79 226 4.0 11.0 0.00 0.00 0.00 80 1014.4
20200705025604 79 228 3.0 8.0 0.00 0.00 0.00 80 1014.1
20200705025507 79 224 4.0 8.0 0.00 0.00 0.00 80 1014.3
20200705025404 79 224 4.0 8.0 0.00 0.00 0.00 80 1014.4
20200705025305 79 220 4.0 8.0 0.00 0.00 0.00 80 1014.3
20200705025205 79 220 4.0 8.0 0.00 0.00 0.00 80 1014.1
20200705025104 79 216 4.0 8.0 0.00 0.00 0.00 80 1014.1
20200705025005 79 216 4.0 8.0 0.00 0.00 0.00 80 1014.1
20200705024904 79 217 4.0 8.0 0.00 0.00 0.00 80 1014.4
20200705024805 79 218 4.0 11.0 0.00 0.00 0.00 80 1014.2
20200705024705 79 216 5.0 11.0 0.00 0.00 0.00 80 1014.1
20200705024605 79 219 5.0 11.0 0.00 0.00 0.00 80 1014.3
20200705024504 79 222 5.0 11.0 0.00 0.00 0.00 80 1014.2
20200705024405 79 219 5.0 11.0 0.00 0.00 0.00 80 1014.0
20200705024304 79 221 5.0 11.0 0.00 0.00 0.00 80 1014.3
20200705024204 79 220 5.0 11.0 0.00 0.00 0.00 80 1014.3
20200705024104 79 224 5.0 11.0 0.00 0.00 0.00 80 1014.3
20200705024005 79 226 5.0 11.0 0.00 0.00 0.00 80 1014.3
20200705023908 79 226 6.0 11.0 0.00 0.00 0.00 80 1014.3
20200705023805 80 228 6.0 11.0 0.00 0.00 0.00 80 1014.1
20200705023704 80 230 6.0 11.0 0.00 0.00 0.00 80 1014.3
20200705023604 80 229 5.0 11.0 0.00 0.00 0.00 80 1014.2
20200705023513 80 228 5.0 11.0 0.00 0.00 0.00 80 1014.0
20200705023404 80 231 5.0 11.0 0.00 0.00 0.00 80 1014.3
20200705023304 80 232 5.0 11.0 0.00 0.00 0.00 80 1014.3
20200705023204 80 233 5.0 11.0 0.00 0.00 0.00 80 1014.2
20200705023105 80 230 4.0 11.0 0.00 0.00 0.00 80 1014.2
20200705023004 80 229 4.0 11.0 0.00 0.00 0.00 80 1014.0
20200705022904 80 229 4.0 11.0 0.00 0.00 0.00 80 1014.2
20200705022804 80 224 3.0 9.0 0.00 0.00 0.00 80 1014.2
20200705022705 80 225 3.0 8.0 0.00 0.00 0.00 80 1014.3
20200705022605 80 227 3.0 8.0 0.00 0.00 0.00 80 1014.0
20200705022505 80 231 3.0 8.0 0.00 0.00 0.00 80 1014.2
20200705022407 80 234 3.0 8.0 0.00 0.00 0.00 79 1014.0
20200705022304 80 236 3.0 7.0 0.00 0.00 0.00 79 1014.1
20200705022205 80 240 3.0 8.0 0.00 0.00 0.00 79 1014.0
20200705022104 80 244 3.0 8.0 0.00 0.00 0.00 79 1013.8
20200705022005 81 247 3.0 8.0 0.00 0.00 0.00 79 1013.9
20200705021904 81 247 4.0 8.0 0.00 0.00 0.00 79 1013.9
20200705021804 81 248 4.0 8.0 0.00 0.00 0.00 78 1014.0
20200705021705 81 248 4.0 8.0 0.00 0.00 0.00 78 1013.7
20200705021604 81 247 4.0 8.0 0.00 0.00 0.00 78 1013.8
20200705021508 81 246 3.0 8.0 0.00 0.00 0.00 78 1013.7
20200705021404 81 245 3.0 8.0 0.00 0.00 0.00 78 1014.1
20200705021304 81 245 4.0 8.0 0.00 0.00 0.00 78 1013.8
20200705021204 81 243 3.0 7.0 0.00 0.00 0.00 78 1014.0
20200705021105 81 243 3.0 7.0 0.00 0.00 0.00 77 1013.8
20200705021004 81 242 3.0 7.0 0.00 0.00 0.00 77 1014.1
20200705020904 81 241 3.0 6.0 0.00 0.00 0.00 77 1013.7
20200705020804 81 240 3.0 10.0 0.00 0.00 0.00 77 1013.9
20200705020704 81 239 4.0 10.0 0.00 0.00 0.00 78 1013.7
20200705020604 81 240 4.0 10.0 0.00 0.00 0.00 77 1013.8
20200705020506 81 241 4.0 10.0 0.00 0.00 0.00 78 1013.7
20200705020404 81 240 4.0 10.0 0.00 0.00 0.00 77 1013.7
20200705020304 81 241 4.0 10.0 0.00 0.00 0.00 77 1013.8
20200705020205 81 241 4.0 10.0 0.00 0.00 0.00 77 1014.0
20200705020104 81 241 4.0 10.0 0.00 0.00 0.00 77 1013.8
20200705020007 81 240 3.0 10.0 0.00 0.00 0.00 78 1013.8
20200705015904 81 241 3.0 10.0 0.00 0.00 0.00 77 1013.8
20200705015804 81 242 3.0 9.0 0.00 0.00 0.00 77 1013.7
20200705015704 81 243 2.0 9.0 0.00 0.00 0.00 78 1013.5
20200705015605 81 244 2.0 6.0 0.00 0.00 0.00 79 1013.6
20200705015504 81 242 2.0 6.0 0.00 0.00 0.00 78 1013.7
20200705015406 81 241 2.0 6.0 0.00 0.00 0.00 78 1013.7
20200705015304 81 238 2.0 6.0 0.00 0.00 0.00 78 1013.8
20200705015207 82 235 1.0 6.0 0.00 0.00 0.00 78 1013.7
20200705015104 82 231 1.0 6.0 0.00 0.00 0.00 78 1014.0
20200705015004 82 227 1.0 6.0 0.00 0.00 0.00 79 1013.6
20200705014904 82 222 1.0 6.0 0.00 0.00 0.00 79 1013.7
20200705014805 82 216 1.0 6.0 0.00 0.00 0.00 79 1013.6
20200705014705 82 210 1.0 6.0 0.00 0.00 0.00 79 1013.8
20200705014605 82 200 1.0 6.0 0.00 0.00 0.00 80 1013.2
20200705014506 82 187 1.0 3.0 0.00 0.00 0.00 79 1013.5
20200705014404 82 185 1.0 2.0 0.00 0.00 0.00 80 1013.3
20200705014304 82 196 1.0 4.0 0.00 0.00 0.00 79 1013.4
20200705014204 82 205 1.0 4.0 0.00 0.00 0.00 80 1013.3
20200705014104 82 214 2.0 7.0 0.00 0.00 0.00 80 1013.1
20200705014005 82 220 2.0 7.0 0.00 0.00 0.00 80 1013.2
20200705013905 82 225 2.0 7.0 0.00 0.00 0.00 80 1013.1
20200705013804 82 228 3.0 7.0 0.00 0.00 0.00 80 1013.4
20200705013704 82 231 3.0 7.0 0.00 0.00 0.00 80 1013.3
20200705013605 82 234 3.0 7.0 0.00 0.00 0.00 80 1013.2
20200705013504 82 235 3.0 7.0 0.00 0.00 0.00 80 1013.4
20200705013404 82 236 3.0 7.0 0.00 0.00 0.00 79 1013.5
20200705013305 82 236 3.0 7.0 0.00 0.00 0.00 79 1013.2
20200705013204 82 237 2.0 7.0 0.00 0.00 0.00 80 1013.2
20200705013104 82 237 2.0 6.0 0.00 0.00 0.00 79 1013.3
20200705013005 82 236 2.0 6.0 0.00 0.00 0.00 79 1013.2
20200705012904 82 235 1.0 6.0 0.00 0.00 0.00 80 1013.1
20200705012804 82 235 1.0 3.0 0.00 0.00 0.00 80 1013.1
20200705012704 82 235 1.0 3.0 0.00 0.00 0.00 80 1013.1
20200705012604 82 235 1.0 3.0 0.00 0.00 0.00 80 1013.1
20200705012504 82 235 1.0 3.0 0.00 0.00 0.00 80 1013.2
20200705012405 82 235 1.0 3.0 0.00 0.00 0.00 79 1013.3
20200705012305 82 235 1.0 2.0 0.00 0.00 0.00 80 1013.1
20200705012204 82 235 1.0 2.0 0.00 0.00 0.00 80 1013.1
20200705012105 82 236 1.0 2.0 0.00 0.00 0.00 78 1012.8
20200705012004 82 236 1.0 2.0 0.00 0.00 0.00 78 1013.0
20200705011904 82 236 1.0 2.0 0.00 0.00 0.00 78 1012.9
20200705011805 82 236 1.0 2.0 0.00 0.00 0.00 78 1012.7
20200705011704 83 235 1.0 2.0 0.00 0.00 0.00 77 1012.7
20200705011604 83 235 1.0 2.0 0.00 0.00 0.00 77 1013.0
20200705011504 83 235 1.0 1.0 0.00 0.00 0.00 77 1012.7
20200705011405 83 235 1.0 1.0 0.00 0.00 0.00 77 1012.7
20200705011304 83 235 1.0 1.0 0.00 0.00 0.00 77 1012.7
20200705011204 83 235 1.0 1.0 0.00 0.00 0.00 77 1012.8
20200705011104 83 235 1.0 1.0 0.00 0.00 0.00 77 1012.7
20200705011006 83 235 1.0 1.0 0.00 0.00 0.00 77 1012.6
20200705010905 83 235 1.0 1.0 0.00 0.00 0.00 77 1012.8
20200705010804 83 235 1.0 1.0 0.00 0.00 0.00 77 1012.7
20200705010704 83 235 1.0 1.0 0.00 0.00 0.00 77 1012.8
20200705010607 83 235 1.0 1.0 0.00 0.00 0.00 78 1012.8
20200705010504 83 235 1.0 1.0 0.00 0.00 0.00 77 1012.6
20200705010405 83 235 1.0 1.0 0.00 0.00 0.00 76 1012.8
20200705010304 83 235 0.0 1.0 0.00 0.00 0.00 75 1012.6
20200705010204 83 236 0.0 1.0 0.00 0.00 0.00 75 1012.5
20200705010104 83 236 0.0 1.0 0.00 0.00 0.00 75 1012.6
20200705010005 83 236 0.0 1.0 0.00 0.00 0.00 75 1012.5
20200705005904 83 236 0.0 1.0 0.00 0.00 0.00 74 1012.5
20200705005804 83 236 0.0 1.0 0.00 0.00 0.00 74 1012.4
20200705005704 83 236 0.0 1.0 0.00 0.00 0.00 74 1012.5
20200705005604 84 236 0.0 1.0 0.00 0.00 0.00 74 1012.4
20200705005504 84 236 0.0 1.0 0.00 0.00 0.00 74 1012.6
20200705005404 84 236 0.0 1.0 0.00 0.00 0.00 74 1012.5
20200705005305 84 236 0.0 1.0 0.00 0.00 0.00 74 1012.3
20200705005204 84 236 0.0 1.0 0.00 0.00 0.00 74 1012.6
20200705005104 84 236 0.0 1.0 0.00 0.00 0.00 73 1012.4
20200705005004 84 236 0.0 1.0 0.00 0.00 0.00 74 1012.3
20200705004904 84 236 0.0 1.0 0.00 0.00 0.00 74 1012.4
20200705004807 84 236 0.0 1.0 0.00 0.00 0.00 74 1012.5
20200705004706 84 235 0.0 1.0 0.00 0.00 0.00 74 1012.3
20200705004604 84 236 0.0 1.0 0.00 0.00 0.00 73 1012.3
20200705004504 84 236 0.0 1.0 0.00 0.00 0.00 73 1012.3
20200705004404 84 236 0.0 1.0 0.00 0.00 0.00 73 1012.5
20200705004304 84 236 0.0 1.0 0.00 0.00 0.00 71 1012.5
20200705004204 84 236 0.0 1.0 0.00 0.00 0.00 72 1012.5
20200705004104 84 235 0.0 1.0 0.00 0.00 0.00 74 1012.4
20200705004004 84 235 0.0 1.0 0.00 0.00 0.00 75 1012.6
20200705003907 84 235 0.0 1.0 0.00 0.00 0.00 76 1012.5
20200705003804 84 235 0.0 1.0 0.00 0.00 0.00 75 1012.4
20200705003704 84 235 0.0 1.0 0.00 0.00 0.00 75 1012.4
20200705003604 84 235 0.0 1.0 0.00 0.00 0.00 75 1012.3
20200705003504 84 235 0.0 1.0 0.00 0.00 0.00 76 1012.1
20200705003404 84 235 0.0 1.0 0.00 0.00 0.00 76 1012.0
20200705003304 84 235 0.0 1.0 0.00 0.00 0.00 75 1012.0
20200705003209 85 235 0.0 1.0 0.00 0.00 0.00 74 1012.0
20200705003104 85 235 0.0 1.0 0.00 0.00 0.00 75 1012.1
20200705003007 85 235 0.0 1.0 0.00 0.00 0.00 74 1012.0
20200705002905 85 235 0.0 0.0 0.00 0.00 0.00 74 1011.9
20200705002804 85 235 0.0 1.0 0.00 0.00 0.00 73 1011.8
20200705002704 85 235 0.0 1.0 0.00 0.00 0.00 72 1011.8
20200705002604 85 235 0.0 1.0 0.00 0.00 0.00 72 1012.0
20200705002504 85 235 0.0 1.0 0.00 0.00 0.00 72 1011.8
20200705002404 85 235 0.0 1.0 0.00 0.00 0.00 71 1011.8
20200705002304 85 235 0.0 1.0 0.00 0.00 0.00 71 1012.1
20200705002204 85 235 0.0 1.0 0.00 0.00 0.00 70 1012.2
20200705002104 85 235 0.0 1.0 0.00 0.00 0.00 71 1012.1
20200705002004 85 235 0.0 1.0 0.00 0.00 0.00 71 1011.9
20200705001904 85 235 0.0 1.0 0.00 0.00 0.00 71 1012.3
20200705001804 85 0 0.0 0.0 0.00 0.00 0.00 72 1012.0
20200705001704 85 0 0.0 0.0 0.00 0.00 0.00 71 1012.0
20200705001604 85 0 0.0 0.0 0.00 0.00 0.00 72 1012.0
20200705001508 85 0 0.0 0.0 0.00 0.00 0.00 71 1012.0
20200705001404 85 0 0.0 0.0 0.00 0.00 0.00 71 1012.2
20200705001304 85 0 0.0 0.0 0.00 0.00 0.00 72 1012.1
20200705001204 85 0 0.0 0.0 0.00 0.00 0.00 72 1012.0
20200705001105 86 0 0.0 0.0 0.00 0.00 0.00 72 1012.0
20200705001004 86 0 0.0 0.0 0.00 0.00 0.00 72 1012.0
20200705000904 86 0 0.0 0.0 0.00 0.00 0.00 72 1012.1
20200705000804 86 0 0.0 0.0 0.00 0.00 0.00 72 1011.9
20200705000704 86 0 0.0 0.0 0.00 0.00 0.00 72 1012.2
20200705000604 86 235 0.0 0.0 0.00 0.00 0.00 72 1012.2
20200705000504 86 235 0.0 1.0 0.00 0.00 0.00 73 1012.2
20200705000404 86 235 0.0 1.0 0.00 0.00 0.00 72 1012.3
20200705000304 86 235 0.0 1.0 0.00 0.00 0.00 72 1012.4
20200705000204 86 235 0.0 1.0 0.00 0.00 0.00 72 1012.5
20200705000104 86 235 0.0 1.0 0.00 0.00 0.00 72 1012.5
20200705000007 86 235 0.0 1.0 0.00 0.00 0.00 71 1012.5
20200704235904 86 235 0.0 1.0 0.00 0.00 0.00 71 1012.4
20200704235805 86 235 0.0 1.0 0.00 0.00 0.00 71 1012.4
20200704235710 86 235 0.0 1.0 0.00 0.00 0.00 71 1012.4
20200704235637 86 235 0.0 1.0 0.00 0.00 0.00 71 1012.4
20200704235521 86 235 0.0 1.0 0.00 0.00 0.00 70 1012.1
20200704235412 86 235 0.0 1.0 0.00 0.00 0.00 71 1012.4
20200704235343 86 235 0.0 2.0 0.00 0.00 0.00 69 1012.5
20200704235220 86 235 0.0 2.0 0.00 0.00 0.00 69 1012.4
20200704235133 86 235 0.0 2.0 0.00 0.00 0.00 69 1012.2
20200704235042 86 235 1.0 2.0 0.00 0.00 0.00 69 1012.5
20200704234905 87 235 1.0 2.0 0.00 0.00 0.00 69 1012.4
20200704234803 87 235 1.0 2.0 0.00 0.00 0.00 69 1012.5
20200704234705 87 235 1.0 2.0 0.00 0.00 0.00 68 1012.2
20200704234604 87 235 1.0 2.0 0.00 0.00 0.00 68 1012.6
20200704234507 87 235 1.0 3.0 0.00 0.00 0.00 67 1012.8
20200704234404 87 235 1.0 3.0 0.00 0.00 0.00 67 1012.4
20200704234304 87 235 1.0 3.0 0.00 0.00 0.00 67 1012.6
20200704234205 87 235 1.0 3.0 0.00 0.00 0.00 67 1012.6
20200704234104 87 235 1.0 3.0 0.00 0.00 0.00 67 1012.3
20200704234008 87 235 1.0 3.0 0.00 0.00 0.00 67 1012.4
20200704233904 87 235 1.0 3.0 0.00 0.00 0.00 67 1012.6
20200704233804 87 236 1.0 3.0 0.00 0.00 0.00 67 1012.4
20200704233704 88 236 1.0 3.0 0.00 0.00 0.00 67 1012.3
20200704233604 88 235 1.0 3.0 0.00 0.00 0.00 68 1012.6
20200704233511 88 235 0.0 2.0 0.00 0.00 0.00 69 1012.5
20200704233404 88 235 0.0 1.0 0.00 0.00 0.00 69 1012.2
20200704233304 88 235 0.0 0.0 0.00 0.00 0.00 69 1012.4
20200704233204 88 235 0.0 1.0 0.00 0.00 0.00 68 1012.2
20200704233109 88 235 0.0 1.0 0.00 0.00 0.00 67 1012.2
20200704233004 88 235 0.0 2.0 0.00 0.00 0.00 67 1012.3
20200704232903 88 235 0.0 2.0 0.00 0.00 0.00 67 1012.3
20200704232804 88 235 0.0 2.0 0.00 0.00 0.00 68 1012.2
20200704232704 88 235 1.0 2.0 0.00 0.00 0.00 66 1012.4
20200704232604 88 235 1.0 2.0 0.00 0.00 0.00 65 1012.2
20200704232504 88 235 1.0 2.0 0.00 0.00 0.00 66 1012.2
20200704232403 88 235 1.0 2.0 0.00 0.00 0.00 64 1012.4
20200704232307 88 235 1.0 2.0 0.00 0.00 0.00 64 1012.3
20200704232204 88 235 1.0 2.0 0.00 0.00 0.00 63 1012.1
20200704232104 89 235 1.0 2.0 0.00 0.00 0.00 63 1012.4
20200704232004 89 235 1.0 3.0 0.00 0.00 0.00 64 1012.3
20200704231906 89 235 1.0 3.0 0.00 0.00 0.00 64 1012.2
20200704231804 89 235 1.0 3.0 0.00 0.00 0.00 64 1012.1
20200704231704 89 235 1.0 3.0 0.00 0.00 0.00 63 1012.1
20200704231605 89 235 1.0 3.0 0.00 0.00 0.00 63 1012.1
20200704231505 89 235 1.0 3.0 0.00 0.00 0.00 65 1012.1
20200704231404 89 235 1.0 3.0 0.00 0.00 0.00 65 1011.9
20200704231305 89 235 1.0 3.0 0.00 0.00 0.00 65 1011.9
20200704231204 89 236 1.0 3.0 0.00 0.00 0.00 64 1012.0
20200704231106 89 236 1.0 3.0 0.00 0.00 0.00 64 1011.8
20200704231004 89 236 1.0 2.0 0.00 0.00 0.00 64 1012.0
20200704230903 89 236 1.0 2.0 0.00 0.00 0.00 63 1011.8
20200704230806 89 236 1.0 2.0 0.00 0.00 0.00 63 1011.7
20200704230704 89 236 1.0 2.0 0.00 0.00 0.00 63 1011.7
20200704230604 89 236 1.0 3.0 0.00 0.00 0.00 62 1011.7
20200704230504 89 236 2.0 3.0 0.00 0.00 0.00 62 1011.4
20200704230403 89 234 2.0 3.0 0.00 0.00 0.00 62 1011.6
20200704230305 89 233 2.0 3.0 0.00 0.00 0.00 63 1011.7
20200704230204 89 232 2.0 3.0 0.00 0.00 0.00 63 1011.5
20200704230104 89 232 2.0 3.0 0.00 0.00 0.00 63 1011.5
20200704230033 89 231 2.0 3.0 0.00 0.00 0.00 63 1011.5
20200704225905 89 230 1.0 3.0 0.00 0.00 0.00 64 1011.4
20200704225805 89 226 1.0 3.0 0.00 0.00 0.00 64 1011.6
20200704225704 89 219 1.0 3.0 0.00 0.00 0.00 64 1011.4
20200704225604 89 207 1.0 3.0 0.00 0.00 0.00 64 1011.3
20200704225505 89 184 1.0 4.0 0.00 0.00 0.00 63 1011.2
20200704225404 89 173 1.0 4.0 0.00 0.00 0.00 62 1011.2
20200704225304 89 169 1.0 4.0 0.00 0.00 0.00 61 1011.3
20200704225204 89 165 1.0 4.0 0.00 0.00 0.00 60 1011.3
20200704225104 89 163 1.0 4.0 0.00 0.00 0.00 62 1011.1
20200704225004 89 165 1.0 4.0 0.00 0.00 0.00 61 1011.3
20200704224903 89 164 2.0 4.0 0.00 0.00 0.00 61 1011.4
20200704224804 89 162 2.0 4.0 0.00 0.00 0.00 61 1011.1
20200704224704 89 163 2.0 4.0 0.00 0.00 0.00 61 1011.2
20200704224604 89 162 2.0 4.0 0.00 0.00 0.00 61 1011.1